<?xml version="1.0" encoding="UTF-8"?><gpx xmlns="http://www.topografix.com/GPX/1/1" version="1.1" creator="iOrient"><trk><name>Квест "Код города"</name><trkseg><trkpt lat="56.8349557" lon="53.1270479"><time>2024-11-14T07:37:33.017</time></trkpt><trkpt lat="56.8349499" lon="53.1270319"><time>2024-11-14T07:37:34.927</time></trkpt><trkpt lat="56.8349071" lon="53.1268969"><time>2024-11-14T07:37:36.930</time></trkpt><trkpt lat="56.8348353" lon="53.1269098"><time>2024-11-14T07:37:37.930</time></trkpt><trkpt lat="56.8348792" lon="53.1268800"><time>2024-11-14T07:37:48.943</time></trkpt><trkpt lat="56.8349560" lon="53.1269056"><time>2024-11-14T07:37:53.947</time></trkpt><trkpt lat="56.8350091" lon="53.1269055"><time>2024-11-14T07:37:56.937</time></trkpt><trkpt lat="56.8349636" lon="53.1269327"><time>2024-11-14T07:38:14.940</time></trkpt><trkpt lat="56.8349126" lon="53.1270120"><time>2024-11-14T07:38:17.937</time></trkpt><trkpt lat="56.8348697" lon="53.1270609"><time>2024-11-14T07:38:19.937</time></trkpt><trkpt lat="56.8348172" lon="53.1271074"><time>2024-11-14T07:38:21.940</time></trkpt><trkpt lat="56.8347490" lon="53.1271522"><time>2024-11-14T07:38:23.937</time></trkpt><trkpt lat="56.8346772" lon="53.1271860"><time>2024-11-14T07:38:25.937</time></trkpt><trkpt lat="56.8346050" lon="53.1272168"><time>2024-11-14T07:38:27.957</time></trkpt><trkpt lat="56.8345065" lon="53.1272348"><time>2024-11-14T07:38:29.927</time></trkpt><trkpt lat="56.8344177" lon="53.1272319"><time>2024-11-14T07:38:31.937</time></trkpt><trkpt lat="56.8343622" lon="53.1272629"><time>2024-11-14T07:38:33.933</time></trkpt><trkpt lat="56.8343088" lon="53.1272997"><time>2024-11-14T07:38:35.937</time></trkpt><trkpt lat="56.8342615" lon="53.1273631"><time>2024-11-14T07:38:37.933</time></trkpt><trkpt lat="56.8342188" lon="53.1274535"><time>2024-11-14T07:38:39.937</time></trkpt><trkpt lat="56.8341875" lon="53.1275721"><time>2024-11-14T07:38:41.987</time></trkpt><trkpt lat="56.8341566" lon="53.1276385"><time>2024-11-14T07:38:43.057</time></trkpt><trkpt lat="56.8341287" lon="53.1277208"><time>2024-11-14T07:38:44.933</time></trkpt><trkpt lat="56.8340895" lon="53.1278359"><time>2024-11-14T07:38:46.933</time></trkpt><trkpt lat="56.8340560" lon="53.1279256"><time>2024-11-14T07:38:48.993</time></trkpt><trkpt lat="56.8340325" lon="53.1279690"><time>2024-11-14T07:38:50.073</time></trkpt><trkpt lat="56.8339951" lon="53.1280658"><time>2024-11-14T07:38:51.930</time></trkpt><trkpt lat="56.8339760" lon="53.1281577"><time>2024-11-14T07:38:53.937</time></trkpt><trkpt lat="56.8339603" lon="53.1282812"><time>2024-11-14T07:38:56.930</time></trkpt><trkpt lat="56.8339622" lon="53.1283768"><time>2024-11-14T07:38:58.940</time></trkpt><trkpt lat="56.8339698" lon="53.1284876"><time>2024-11-14T07:39:00.933</time></trkpt><trkpt lat="56.8339782" lon="53.1286110"><time>2024-11-14T07:39:02.933</time></trkpt><trkpt lat="56.8339958" lon="53.1287420"><time>2024-11-14T07:39:04.933</time></trkpt><trkpt lat="56.8340210" lon="53.1288778"><time>2024-11-14T07:39:06.937</time></trkpt><trkpt lat="56.8340414" lon="53.1290118"><time>2024-11-14T07:39:08.950</time></trkpt><trkpt lat="56.8340279" lon="53.1291373"><time>2024-11-14T07:39:10.023</time></trkpt><trkpt lat="56.8340425" lon="53.1292164"><time>2024-11-14T07:39:10.933</time></trkpt><trkpt lat="56.8340710" lon="53.1293226"><time>2024-11-14T07:39:12.933</time></trkpt><trkpt lat="56.8340771" lon="53.1294120"><time>2024-11-14T07:39:13.937</time></trkpt><trkpt lat="56.8340927" lon="53.1295237"><time>2024-11-14T07:39:15.937</time></trkpt><trkpt lat="56.8341235" lon="53.1296085"><time>2024-11-14T07:39:17.933</time></trkpt><trkpt lat="56.8341741" lon="53.1296378"><time>2024-11-14T07:39:19.937</time></trkpt><trkpt lat="56.8342317" lon="53.1296349"><time>2024-11-14T07:39:21.937</time></trkpt><trkpt lat="56.8342906" lon="53.1296446"><time>2024-11-14T07:39:23.957</time></trkpt><trkpt lat="56.8342906" lon="53.1296446"><time>2024-11-14T07:39:24.007</time></trkpt><trkpt lat="56.8343367" lon="53.1296259"><time>2024-11-14T07:39:25.957</time></trkpt><trkpt lat="56.8343225" lon="53.1296603"><time>2024-11-14T07:39:27.040</time></trkpt><trkpt lat="56.8343184" lon="53.1295645"><time>2024-11-14T07:39:29.933</time></trkpt><trkpt lat="56.8343126" lon="53.1294586"><time>2024-11-14T07:39:32.933</time></trkpt><trkpt lat="56.8343513" lon="53.1295141"><time>2024-11-14T07:39:40.947</time></trkpt><trkpt lat="56.8343951" lon="53.1294917"><time>2024-11-14T07:39:42.937</time></trkpt><trkpt lat="56.8344375" lon="53.1294591"><time>2024-11-14T07:39:44.983</time></trkpt><trkpt lat="56.8344759" lon="53.1293560"><time>2024-11-14T07:39:48.007</time></trkpt><trkpt lat="56.8344404" lon="53.1293052"><time>2024-11-14T07:39:52.027</time></trkpt><trkpt lat="56.8344464" lon="53.1293878"><time>2024-11-14T07:40:19.983</time></trkpt><trkpt lat="56.8344582" lon="53.1294709"><time>2024-11-14T07:40:52.933</time></trkpt><trkpt lat="56.8344945" lon="53.1295202"><time>2024-11-14T07:41:03.933</time></trkpt><trkpt lat="56.8345207" lon="53.1296011"><time>2024-11-14T07:41:06.940</time></trkpt><trkpt lat="56.8345834" lon="53.1296295"><time>2024-11-14T07:41:09.937</time></trkpt><trkpt lat="56.8346321" lon="53.1296275"><time>2024-11-14T07:41:11.937</time></trkpt><trkpt lat="56.8346764" lon="53.1296547"><time>2024-11-14T07:41:13.937</time></trkpt><trkpt lat="56.8346955" lon="53.1297482"><time>2024-11-14T07:41:15.927</time></trkpt><trkpt lat="56.8347134" lon="53.1298494"><time>2024-11-14T07:41:17.937</time></trkpt><trkpt lat="56.8347542" lon="53.1299180"><time>2024-11-14T07:41:19.967</time></trkpt><trkpt lat="56.8347990" lon="53.1299857"><time>2024-11-14T07:41:21.993</time></trkpt><trkpt lat="56.8348394" lon="53.1300657"><time>2024-11-14T07:41:23.963</time></trkpt><trkpt lat="56.8348587" lon="53.1301746"><time>2024-11-14T07:41:25.933</time></trkpt><trkpt lat="56.8348652" lon="53.1303010"><time>2024-11-14T07:41:27.980</time></trkpt><trkpt lat="56.8348891" lon="53.1305074"><time>2024-11-14T07:41:29.187</time></trkpt><trkpt lat="56.8348975" lon="53.1306508"><time>2024-11-14T07:41:30.933</time></trkpt><trkpt lat="56.8349154" lon="53.1307744"><time>2024-11-14T07:41:32.940</time></trkpt><trkpt lat="56.8349272" lon="53.1308708"><time>2024-11-14T07:41:34.937</time></trkpt><trkpt lat="56.8349378" lon="53.1309819"><time>2024-11-14T07:41:36.947</time></trkpt><trkpt lat="56.8349360" lon="53.1311117"><time>2024-11-14T07:41:38.963</time></trkpt><trkpt lat="56.8349349" lon="53.1312510"><time>2024-11-14T07:41:40.930</time></trkpt><trkpt lat="56.8349432" lon="53.1313916"><time>2024-11-14T07:41:42.937</time></trkpt><trkpt lat="56.8349559" lon="53.1315327"><time>2024-11-14T07:41:44.937</time></trkpt><trkpt lat="56.8349620" lon="53.1316752"><time>2024-11-14T07:41:46.937</time></trkpt><trkpt lat="56.8349689" lon="53.1318123"><time>2024-11-14T07:41:48.937</time></trkpt><trkpt lat="56.8349740" lon="53.1319415"><time>2024-11-14T07:41:50.940</time></trkpt><trkpt lat="56.8349702" lon="53.1320784"><time>2024-11-14T07:41:52.940</time></trkpt><trkpt lat="56.8349679" lon="53.1322208"><time>2024-11-14T07:41:54.937</time></trkpt><trkpt lat="56.8349680" lon="53.1323622"><time>2024-11-14T07:41:56.937</time></trkpt><trkpt lat="56.8349552" lon="53.1324983"><time>2024-11-14T07:41:58.937</time></trkpt><trkpt lat="56.8349347" lon="53.1326295"><time>2024-11-14T07:42:00.937</time></trkpt><trkpt lat="56.8349201" lon="53.1327647"><time>2024-11-14T07:42:02.937</time></trkpt><trkpt lat="56.8349155" lon="53.1328485"><time>2024-11-14T07:42:03.940</time></trkpt><trkpt lat="56.8349503" lon="53.1329889"><time>2024-11-14T07:42:05.937</time></trkpt><trkpt lat="56.8349913" lon="53.1330700"><time>2024-11-14T07:42:07.970</time></trkpt><trkpt lat="56.8350095" lon="53.1331797"><time>2024-11-14T07:42:09.937</time></trkpt><trkpt lat="56.8350445" lon="53.1333073"><time>2024-11-14T07:42:11.937</time></trkpt><trkpt lat="56.8350732" lon="53.1334304"><time>2024-11-14T07:42:13.933</time></trkpt><trkpt lat="56.8350922" lon="53.1335494"><time>2024-11-14T07:42:15.947</time></trkpt><trkpt lat="56.8350958" lon="53.1336721"><time>2024-11-14T07:42:18.937</time></trkpt><trkpt lat="56.8350817" lon="53.1337518"><time>2024-11-14T07:42:20.937</time></trkpt><trkpt lat="56.8350783" lon="53.1338424"><time>2024-11-14T07:42:23.940</time></trkpt><trkpt lat="56.8351103" lon="53.1339221"><time>2024-11-14T07:42:26.977</time></trkpt><trkpt lat="56.8351208" lon="53.1340238"><time>2024-11-14T07:42:28.940</time></trkpt><trkpt lat="56.8351362" lon="53.1341179"><time>2024-11-14T07:42:30.997</time></trkpt><trkpt lat="56.8351454" lon="53.1342097"><time>2024-11-14T07:42:35.947</time></trkpt><trkpt lat="56.8351408" lon="53.1342978"><time>2024-11-14T07:42:40.943</time></trkpt><trkpt lat="56.8351869" lon="53.1342294"><time>2024-11-14T07:42:47.993</time></trkpt><trkpt lat="56.8352406" lon="53.1341521"><time>2024-11-14T07:42:52.957</time></trkpt><trkpt lat="56.8352794" lon="53.1341097"><time>2024-11-14T07:42:54.930</time></trkpt><trkpt lat="56.8353153" lon="53.1340571"><time>2024-11-14T07:42:56.933</time></trkpt><trkpt lat="56.8353417" lon="53.1339871"><time>2024-11-14T07:42:59.007</time></trkpt><trkpt lat="56.8353677" lon="53.1339010"><time>2024-11-14T07:43:00.943</time></trkpt><trkpt lat="56.8354240" lon="53.1338237"><time>2024-11-14T07:43:03.017</time></trkpt><trkpt lat="56.8354998" lon="53.1337928"><time>2024-11-14T07:43:04.943</time></trkpt><trkpt lat="56.8355772" lon="53.1337730"><time>2024-11-14T07:43:07.020</time></trkpt><trkpt lat="56.8356535" lon="53.1337601"><time>2024-11-14T07:43:08.997</time></trkpt><trkpt lat="56.8357284" lon="53.1337500"><time>2024-11-14T07:43:10.943</time></trkpt><trkpt lat="56.8358057" lon="53.1337369"><time>2024-11-14T07:43:12.997</time></trkpt><trkpt lat="56.8358875" lon="53.1337256"><time>2024-11-14T07:43:14.940</time></trkpt><trkpt lat="56.8359702" lon="53.1337038"><time>2024-11-14T07:43:16.973</time></trkpt><trkpt lat="56.8360469" lon="53.1336795"><time>2024-11-14T07:43:18.927</time></trkpt><trkpt lat="56.8361204" lon="53.1336653"><time>2024-11-14T07:43:20.950</time></trkpt><trkpt lat="56.8362336" lon="53.1336042"><time>2024-11-14T07:43:22.237</time></trkpt><trkpt lat="56.8362865" lon="53.1335978"><time>2024-11-14T07:43:22.927</time></trkpt><trkpt lat="56.8363530" lon="53.1335615"><time>2024-11-14T07:43:24.937</time></trkpt><trkpt lat="56.8364070" lon="53.1335084"><time>2024-11-14T07:43:26.933</time></trkpt><trkpt lat="56.8363996" lon="53.1334223"><time>2024-11-14T07:43:28.953</time></trkpt><trkpt lat="56.8364114" lon="53.1333307"><time>2024-11-14T07:43:31.060</time></trkpt><trkpt lat="56.8364314" lon="53.1332221"><time>2024-11-14T07:43:33.923</time></trkpt><trkpt lat="56.8364561" lon="53.1331447"><time>2024-11-14T07:43:35.940</time></trkpt><trkpt lat="56.8365205" lon="53.1331154"><time>2024-11-14T07:43:38.017</time></trkpt><trkpt lat="56.8365942" lon="53.1331206"><time>2024-11-14T07:43:39.970</time></trkpt><trkpt lat="56.8366658" lon="53.1331078"><time>2024-11-14T07:43:42.040</time></trkpt><trkpt lat="56.8367261" lon="53.1330719"><time>2024-11-14T07:43:44.047</time></trkpt><trkpt lat="56.8367894" lon="53.1330322"><time>2024-11-14T07:43:45.970</time></trkpt><trkpt lat="56.8368345" lon="53.1329981"><time>2024-11-14T07:43:47.937</time></trkpt><trkpt lat="56.8368915" lon="53.1329676"><time>2024-11-14T07:43:50.930</time></trkpt><trkpt lat="56.8369527" lon="53.1329075"><time>2024-11-14T07:43:54.013</time></trkpt><trkpt lat="56.8370065" lon="53.1329050"><time>2024-11-14T07:43:55.090</time></trkpt><trkpt lat="56.8370517" lon="53.1328969"><time>2024-11-14T07:43:55.930</time></trkpt><trkpt lat="56.8371027" lon="53.1328964"><time>2024-11-14T07:43:56.930</time></trkpt><trkpt lat="56.8371228" lon="53.1328176"><time>2024-11-14T07:43:59.937</time></trkpt><trkpt lat="56.8371636" lon="53.1327675"><time>2024-11-14T07:44:07.007</time></trkpt><trkpt lat="56.8372181" lon="53.1328075"><time>2024-11-14T07:44:10.933</time></trkpt><trkpt lat="56.8372884" lon="53.1328227"><time>2024-11-14T07:44:14.007</time></trkpt><trkpt lat="56.8373588" lon="53.1328708"><time>2024-11-14T07:44:15.953</time></trkpt><trkpt lat="56.8374604" lon="53.1330252"><time>2024-11-14T07:44:17.020</time></trkpt><trkpt lat="56.8375154" lon="53.1330412"><time>2024-11-14T07:44:20.937</time></trkpt><trkpt lat="56.8375588" lon="53.1329883"><time>2024-11-14T07:44:32.933</time></trkpt><trkpt lat="56.8375055" lon="53.1330233"><time>2024-11-14T07:44:43.937</time></trkpt><trkpt lat="56.8374366" lon="53.1330779"><time>2024-11-14T07:44:46.937</time></trkpt><trkpt lat="56.8373731" lon="53.1331187"><time>2024-11-14T07:44:48.990</time></trkpt><trkpt lat="56.8372786" lon="53.1331808"><time>2024-11-14T07:44:50.067</time></trkpt><trkpt lat="56.8372071" lon="53.1333150"><time>2024-11-14T07:44:51.933</time></trkpt><trkpt lat="56.8371648" lon="53.1333926"><time>2024-11-14T07:44:53.933</time></trkpt><trkpt lat="56.8371298" lon="53.1334454"><time>2024-11-14T07:44:55.937</time></trkpt><trkpt lat="56.8370911" lon="53.1335123"><time>2024-11-14T07:44:57.933</time></trkpt><trkpt lat="56.8370663" lon="53.1336075"><time>2024-11-14T07:44:59.937</time></trkpt><trkpt lat="56.8370513" lon="53.1337121"><time>2024-11-14T07:45:01.933</time></trkpt><trkpt lat="56.8370104" lon="53.1337873"><time>2024-11-14T07:45:04.027</time></trkpt><trkpt lat="56.8369929" lon="53.1337882"><time>2024-11-14T07:45:05.107</time></trkpt><trkpt lat="56.8369361" lon="53.1338460"><time>2024-11-14T07:45:07.930</time></trkpt><trkpt lat="56.8368914" lon="53.1338666"><time>2024-11-14T07:45:09.937</time></trkpt><trkpt lat="56.8368340" lon="53.1338948"><time>2024-11-14T07:45:12.930</time></trkpt><trkpt lat="56.8367750" lon="53.1339078"><time>2024-11-14T07:45:15.933</time></trkpt><trkpt lat="56.8367104" lon="53.1339267"><time>2024-11-14T07:45:18.933</time></trkpt><trkpt lat="56.8366554" lon="53.1339061"><time>2024-11-14T07:45:20.933</time></trkpt><trkpt lat="56.8365986" lon="53.1338518"><time>2024-11-14T07:45:22.930</time></trkpt><trkpt lat="56.8365374" lon="53.1338263"><time>2024-11-14T07:45:24.933</time></trkpt><trkpt lat="56.8364727" lon="53.1338632"><time>2024-11-14T07:45:26.933</time></trkpt><trkpt lat="56.8364328" lon="53.1339034"><time>2024-11-14T07:45:27.930</time></trkpt><trkpt lat="56.8363953" lon="53.1339498"><time>2024-11-14T07:45:28.973</time></trkpt><trkpt lat="56.8363355" lon="53.1340530"><time>2024-11-14T07:45:30.927</time></trkpt><trkpt lat="56.8363353" lon="53.1342061"><time>2024-11-14T07:45:33.020</time></trkpt><trkpt lat="56.8363509" lon="53.1342858"><time>2024-11-14T07:45:34.010</time></trkpt><trkpt lat="56.8363727" lon="53.1343669"><time>2024-11-14T07:45:34.930</time></trkpt><trkpt lat="56.8363913" lon="53.1344423"><time>2024-11-14T07:45:35.937</time></trkpt><trkpt lat="56.8364240" lon="53.1345713"><time>2024-11-14T07:45:38.003</time></trkpt><trkpt lat="56.8364498" lon="53.1346924"><time>2024-11-14T07:45:39.937</time></trkpt><trkpt lat="56.8364610" lon="53.1348164"><time>2024-11-14T07:45:42</time></trkpt><trkpt lat="56.8364506" lon="53.1349371"><time>2024-11-14T07:45:43.987</time></trkpt><trkpt lat="56.8364180" lon="53.1350565"><time>2024-11-14T07:45:45.943</time></trkpt><trkpt lat="56.8363618" lon="53.1351451"><time>2024-11-14T07:45:47.983</time></trkpt><trkpt lat="56.8363153" lon="53.1352357"><time>2024-11-14T07:45:49.940</time></trkpt><trkpt lat="56.8363031" lon="53.1353570"><time>2024-11-14T07:45:51.997</time></trkpt><trkpt lat="56.8363132" lon="53.1354932"><time>2024-11-14T07:45:53.987</time></trkpt><trkpt lat="56.8363486" lon="53.1356061"><time>2024-11-14T07:45:55.950</time></trkpt><trkpt lat="56.8363784" lon="53.1356943"><time>2024-11-14T07:45:58.003</time></trkpt><trkpt lat="56.8363400" lon="53.1357980"><time>2024-11-14T07:45:59.937</time></trkpt><trkpt lat="56.8362934" lon="53.1358307"><time>2024-11-14T07:46:02.023</time></trkpt><trkpt lat="56.8362224" lon="53.1358747"><time>2024-11-14T07:46:04.943</time></trkpt><trkpt lat="56.8361447" lon="53.1359091"><time>2024-11-14T07:46:06.930</time></trkpt><trkpt lat="56.8360669" lon="53.1359159"><time>2024-11-14T07:46:08.997</time></trkpt><trkpt lat="56.8359880" lon="53.1359335"><time>2024-11-14T07:46:10.940</time></trkpt><trkpt lat="56.8359112" lon="53.1359647"><time>2024-11-14T07:46:13.007</time></trkpt><trkpt lat="56.8358322" lon="53.1359809"><time>2024-11-14T07:46:15.010</time></trkpt><trkpt lat="56.8357323" lon="53.1358956"><time>2024-11-14T07:46:16.113</time></trkpt><trkpt lat="56.8356932" lon="53.1358981"><time>2024-11-14T07:46:17.227</time></trkpt><trkpt lat="56.8356114" lon="53.1359163"><time>2024-11-14T07:46:18.987</time></trkpt><trkpt lat="56.8355879" lon="53.1359076"><time>2024-11-14T07:46:20.070</time></trkpt><trkpt lat="56.8355404" lon="53.1359090"><time>2024-11-14T07:46:20.937</time></trkpt><trkpt lat="56.8354568" lon="53.1358966"><time>2024-11-14T07:46:22.933</time></trkpt><trkpt lat="56.8353912" lon="53.1359361"><time>2024-11-14T07:46:24.933</time></trkpt><trkpt lat="56.8353684" lon="53.1360175"><time>2024-11-14T07:46:26.933</time></trkpt><trkpt lat="56.8353790" lon="53.1361291"><time>2024-11-14T07:46:29.017</time></trkpt><trkpt lat="56.8353663" lon="53.1362341"><time>2024-11-14T07:46:30.940</time></trkpt><trkpt lat="56.8353309" lon="53.1363128"><time>2024-11-14T07:46:33</time></trkpt><trkpt lat="56.8352961" lon="53.1363974"><time>2024-11-14T07:46:35.927</time></trkpt><trkpt lat="56.8352646" lon="53.1364692"><time>2024-11-14T07:46:39.007</time></trkpt><trkpt lat="56.8352249" lon="53.1365580"><time>2024-11-14T07:46:41.967</time></trkpt><trkpt lat="56.8351961" lon="53.1366251"><time>2024-11-14T07:46:43.997</time></trkpt><trkpt lat="56.8351718" lon="53.1367000"><time>2024-11-14T07:46:46.940</time></trkpt><trkpt lat="56.8351343" lon="53.1367759"><time>2024-11-14T07:46:51.010</time></trkpt><trkpt lat="56.8350909" lon="53.1368277"><time>2024-11-14T07:46:53.987</time></trkpt><trkpt lat="56.8350506" lon="53.1368669"><time>2024-11-14T07:46:57</time></trkpt><trkpt lat="56.8350877" lon="53.1369446"><time>2024-11-14T07:47:02.990</time></trkpt><trkpt lat="56.8351519" lon="53.1369628"><time>2024-11-14T07:47:05.937</time></trkpt><trkpt lat="56.8352088" lon="53.1370223"><time>2024-11-14T07:47:08.017</time></trkpt><trkpt lat="56.8352400" lon="53.1370342"><time>2024-11-14T07:47:09.267</time></trkpt><trkpt lat="56.8352851" lon="53.1371140"><time>2024-11-14T07:47:10.937</time></trkpt><trkpt lat="56.8353254" lon="53.1371891"><time>2024-11-14T07:47:12.937</time></trkpt><trkpt lat="56.8353655" lon="53.1372394"><time>2024-11-14T07:47:14.933</time></trkpt><trkpt lat="56.8354055" lon="53.1372888"><time>2024-11-14T07:47:16.933</time></trkpt><trkpt lat="56.8354445" lon="53.1373479"><time>2024-11-14T07:47:20</time></trkpt><trkpt lat="56.8354445" lon="53.1373479"><time>2024-11-14T07:47:20.047</time></trkpt><trkpt lat="56.8354786" lon="53.1374250"><time>2024-11-14T07:47:22.957</time></trkpt><trkpt lat="56.8354993" lon="53.1374760"><time>2024-11-14T07:47:24.037</time></trkpt><trkpt lat="56.8355576" lon="53.1375591"><time>2024-11-14T07:47:25.937</time></trkpt><trkpt lat="56.8356072" lon="53.1375246"><time>2024-11-14T07:47:28.953</time></trkpt><trkpt lat="56.8356227" lon="53.1376241"><time>2024-11-14T07:48:05.937</time></trkpt><trkpt lat="56.8356632" lon="53.1376893"><time>2024-11-14T07:48:09.003</time></trkpt><trkpt lat="56.8356982" lon="53.1377466"><time>2024-11-14T07:48:10.943</time></trkpt><trkpt lat="56.8357371" lon="53.1378325"><time>2024-11-14T07:48:13.017</time></trkpt><trkpt lat="56.8357950" lon="53.1379142"><time>2024-11-14T07:48:14.937</time></trkpt><trkpt lat="56.8358604" lon="53.1379686"><time>2024-11-14T07:48:17.003</time></trkpt><trkpt lat="56.8359293" lon="53.1380233"><time>2024-11-14T07:48:19.023</time></trkpt><trkpt lat="56.8359789" lon="53.1380957"><time>2024-11-14T07:48:20.940</time></trkpt><trkpt lat="56.8360272" lon="53.1381505"><time>2024-11-14T07:48:23.003</time></trkpt><trkpt lat="56.8360724" lon="53.1381742"><time>2024-11-14T07:48:24.940</time></trkpt><trkpt lat="56.8361423" lon="53.1381752"><time>2024-11-14T07:48:27.937</time></trkpt><trkpt lat="56.8361953" lon="53.1381592"><time>2024-11-14T07:48:29.937</time></trkpt><trkpt lat="56.8362520" lon="53.1381142"><time>2024-11-14T07:48:31.937</time></trkpt><trkpt lat="56.8363103" lon="53.1380748"><time>2024-11-14T07:48:34.020</time></trkpt><trkpt lat="56.8363862" lon="53.1381041"><time>2024-11-14T07:48:35.937</time></trkpt><trkpt lat="56.8364336" lon="53.1381487"><time>2024-11-14T07:48:36.937</time></trkpt><trkpt lat="56.8364818" lon="53.1381906"><time>2024-11-14T07:48:37.937</time></trkpt><trkpt lat="56.8365292" lon="53.1382319"><time>2024-11-14T07:48:38.930</time></trkpt><trkpt lat="56.8365758" lon="53.1382756"><time>2024-11-14T07:48:39.933</time></trkpt><trkpt lat="56.8366128" lon="53.1383319"><time>2024-11-14T07:48:40.937</time></trkpt><trkpt lat="56.8366417" lon="53.1383973"><time>2024-11-14T07:48:41.933</time></trkpt><trkpt lat="56.8366944" lon="53.1385211"><time>2024-11-14T07:48:43.937</time></trkpt><trkpt lat="56.8367687" lon="53.1385948"><time>2024-11-14T07:48:45.937</time></trkpt><trkpt lat="56.8368468" lon="53.1386417"><time>2024-11-14T07:48:47.937</time></trkpt><trkpt lat="56.8369120" lon="53.1387167"><time>2024-11-14T07:48:49.937</time></trkpt><trkpt lat="56.8369656" lon="53.1388238"><time>2024-11-14T07:48:51.937</time></trkpt><trkpt lat="56.8370092" lon="53.1389353"><time>2024-11-14T07:48:53.940</time></trkpt><trkpt lat="56.8370625" lon="53.1390125"><time>2024-11-14T07:48:55.937</time></trkpt><trkpt lat="56.8371275" lon="53.1390516"><time>2024-11-14T07:48:58</time></trkpt><trkpt lat="56.8371986" lon="53.1390856"><time>2024-11-14T07:48:59.937</time></trkpt><trkpt lat="56.8372594" lon="53.1391723"><time>2024-11-14T07:49:02.007</time></trkpt><trkpt lat="56.8373253" lon="53.1392340"><time>2024-11-14T07:49:04.013</time></trkpt><trkpt lat="56.8373912" lon="53.1392419"><time>2024-11-14T07:49:05.933</time></trkpt><trkpt lat="56.8374447" lon="53.1392556"><time>2024-11-14T07:49:07.997</time></trkpt><trkpt lat="56.8374957" lon="53.1392624"><time>2024-11-14T07:49:09.937</time></trkpt><trkpt lat="56.8375576" lon="53.1393336"><time>2024-11-14T07:49:11.930</time></trkpt><trkpt lat="56.8376004" lon="53.1393924"><time>2024-11-14T07:49:12.933</time></trkpt><trkpt lat="56.8376447" lon="53.1394507"><time>2024-11-14T07:49:13.933</time></trkpt><trkpt lat="56.8376862" lon="53.1395085"><time>2024-11-14T07:49:14.937</time></trkpt><trkpt lat="56.8377265" lon="53.1395481"><time>2024-11-14T07:49:15.933</time></trkpt><trkpt lat="56.8378050" lon="53.1395818"><time>2024-11-14T07:49:17.937</time></trkpt><trkpt lat="56.8378831" lon="53.1396169"><time>2024-11-14T07:49:19.937</time></trkpt><trkpt lat="56.8379663" lon="53.1396309"><time>2024-11-14T07:49:21.933</time></trkpt><trkpt lat="56.8380449" lon="53.1396168"><time>2024-11-14T07:49:23.933</time></trkpt><trkpt lat="56.8381274" lon="53.1396500"><time>2024-11-14T07:49:25.933</time></trkpt><trkpt lat="56.8381980" lon="53.1396900"><time>2024-11-14T07:49:27.937</time></trkpt><trkpt lat="56.8382301" lon="53.1397901"><time>2024-11-14T07:49:29.937</time></trkpt><trkpt lat="56.8382474" lon="53.1399212"><time>2024-11-14T07:49:31.997</time></trkpt><trkpt lat="56.8381982" lon="53.1399492"><time>2024-11-14T07:49:33.067</time></trkpt><trkpt lat="56.8382175" lon="53.1400588"><time>2024-11-14T07:49:34.933</time></trkpt><trkpt lat="56.8382169" lon="53.1401673"><time>2024-11-14T07:49:36.933</time></trkpt><trkpt lat="56.8382455" lon="53.1402736"><time>2024-11-14T07:49:39.937</time></trkpt><trkpt lat="56.8382888" lon="53.1403216"><time>2024-11-14T07:49:41.937</time></trkpt><trkpt lat="56.8383432" lon="53.1403563"><time>2024-11-14T07:49:43.933</time></trkpt><trkpt lat="56.8384082" lon="53.1403808"><time>2024-11-14T07:49:45.937</time></trkpt><trkpt lat="56.8384815" lon="53.1403929"><time>2024-11-14T07:49:47.933</time></trkpt><trkpt lat="56.8385495" lon="53.1404441"><time>2024-11-14T07:49:49.940</time></trkpt><trkpt lat="56.8385869" lon="53.1405522"><time>2024-11-14T07:49:52.020</time></trkpt><trkpt lat="56.8385978" lon="53.1406495"><time>2024-11-14T07:49:54.017</time></trkpt><trkpt lat="56.8386256" lon="53.1407162"><time>2024-11-14T07:49:57.020</time></trkpt><trkpt lat="56.8386684" lon="53.1407870"><time>2024-11-14T07:50:00.937</time></trkpt><trkpt lat="56.8386931" lon="53.1408564"><time>2024-11-14T07:50:04.013</time></trkpt><trkpt lat="56.8387117" lon="53.1409511"><time>2024-11-14T07:50:09.020</time></trkpt><trkpt lat="56.8387017" lon="53.1410545"><time>2024-11-14T07:50:13</time></trkpt><trkpt lat="56.8386950" lon="53.1411393"><time>2024-11-14T07:50:15.940</time></trkpt><trkpt lat="56.8387001" lon="53.1412515"><time>2024-11-14T07:50:19.013</time></trkpt><trkpt lat="56.8386976" lon="53.1413500"><time>2024-11-14T07:50:22.017</time></trkpt><trkpt lat="56.8386943" lon="53.1414435"><time>2024-11-14T07:50:24.937</time></trkpt><trkpt lat="56.8387044" lon="53.1415318"><time>2024-11-14T07:50:27.937</time></trkpt><trkpt lat="56.8387162" lon="53.1416222"><time>2024-11-14T07:50:31.997</time></trkpt><trkpt lat="56.8387446" lon="53.1417134"><time>2024-11-14T07:50:35.937</time></trkpt><trkpt lat="56.8387157" lon="53.1416479"><time>2024-11-14T07:50:52.017</time></trkpt><trkpt lat="56.8386912" lon="53.1415575"><time>2024-11-14T07:50:55.940</time></trkpt><trkpt lat="56.8386379" lon="53.1415299"><time>2024-11-14T07:50:59.937</time></trkpt><trkpt lat="56.8385970" lon="53.1414918"><time>2024-11-14T07:51:01.937</time></trkpt><trkpt lat="56.8385706" lon="53.1414064"><time>2024-11-14T07:51:03.937</time></trkpt><trkpt lat="56.8385521" lon="53.1413102"><time>2024-11-14T07:51:05.940</time></trkpt><trkpt lat="56.8385409" lon="53.1411890"><time>2024-11-14T07:51:07.933</time></trkpt><trkpt lat="56.8385114" lon="53.1410765"><time>2024-11-14T07:51:09.937</time></trkpt><trkpt lat="56.8384376" lon="53.1409955"><time>2024-11-14T07:51:11.937</time></trkpt><trkpt lat="56.8383929" lon="53.1409714"><time>2024-11-14T07:51:12.933</time></trkpt><trkpt lat="56.8383471" lon="53.1409596"><time>2024-11-14T07:51:13.933</time></trkpt><trkpt lat="56.8382637" lon="53.1409485"><time>2024-11-14T07:51:15.943</time></trkpt><trkpt lat="56.8381931" lon="53.1409349"><time>2024-11-14T07:51:17.937</time></trkpt><trkpt lat="56.8381392" lon="53.1409555"><time>2024-11-14T07:51:19.933</time></trkpt><trkpt lat="56.8381304" lon="53.1410666"><time>2024-11-14T07:51:22.963</time></trkpt><trkpt lat="56.8381255" lon="53.1411560"><time>2024-11-14T07:51:25.937</time></trkpt><trkpt lat="56.8381706" lon="53.1411458"><time>2024-11-14T07:51:34.950</time></trkpt><trkpt lat="56.8381915" lon="53.1412646"><time>2024-11-14T07:51:36.970</time></trkpt><trkpt lat="56.8381967" lon="53.1413991"><time>2024-11-14T07:51:38.973</time></trkpt><trkpt lat="56.8382036" lon="53.1415188"><time>2024-11-14T07:51:40.967</time></trkpt><trkpt lat="56.8382170" lon="53.1416220"><time>2024-11-14T07:51:42.983</time></trkpt><trkpt lat="56.8382161" lon="53.1417073"><time>2024-11-14T07:51:44.163</time></trkpt><trkpt lat="56.8382194" lon="53.1418444"><time>2024-11-14T07:51:45.937</time></trkpt><trkpt lat="56.8382082" lon="53.1419361"><time>2024-11-14T07:51:46.937</time></trkpt><trkpt lat="56.8382032" lon="53.1420574"><time>2024-11-14T07:51:48.937</time></trkpt><trkpt lat="56.8382043" lon="53.1421639"><time>2024-11-14T07:51:50.963</time></trkpt><trkpt lat="56.8382215" lon="53.1422764"><time>2024-11-14T07:51:52.937</time></trkpt><trkpt lat="56.8382494" lon="53.1423822"><time>2024-11-14T07:51:54.937</time></trkpt><trkpt lat="56.8382481" lon="53.1424981"><time>2024-11-14T07:51:56.937</time></trkpt><trkpt lat="56.8381989" lon="53.1425810"><time>2024-11-14T07:51:58.940</time></trkpt><trkpt lat="56.8381235" lon="53.1426292"><time>2024-11-14T07:52:00.953</time></trkpt><trkpt lat="56.8380614" lon="53.1425981"><time>2024-11-14T07:52:02.020</time></trkpt><trkpt lat="56.8380064" lon="53.1425849"><time>2024-11-14T07:52:04.937</time></trkpt><trkpt lat="56.8379527" lon="53.1425735"><time>2024-11-14T07:52:08.937</time></trkpt><trkpt lat="56.8379004" lon="53.1425904"><time>2024-11-14T07:52:12.940</time></trkpt><trkpt lat="56.8378892" lon="53.1426868"><time>2024-11-14T07:52:17.937</time></trkpt><trkpt lat="56.8379086" lon="53.1427918"><time>2024-11-14T07:52:21.010</time></trkpt><trkpt lat="56.8379086" lon="53.1427918"><time>2024-11-14T07:52:21.037</time></trkpt><trkpt lat="56.8379117" lon="53.1429015"><time>2024-11-14T07:52:23.957</time></trkpt><trkpt lat="56.8379033" lon="53.1428256"><time>2024-11-14T07:52:25.040</time></trkpt><trkpt lat="56.8379486" lon="53.1428588"><time>2024-11-14T07:52:30.947</time></trkpt><trkpt lat="56.8379370" lon="53.1429574"><time>2024-11-14T07:52:42.040</time></trkpt><trkpt lat="56.8379226" lon="53.1430403"><time>2024-11-14T07:52:55.937</time></trkpt><trkpt lat="56.8379028" lon="53.1431155"><time>2024-11-14T07:52:58.973</time></trkpt><trkpt lat="56.8378379" lon="53.1431782"><time>2024-11-14T07:53:01.933</time></trkpt><trkpt lat="56.8377881" lon="53.1432095"><time>2024-11-14T07:53:03.960</time></trkpt><trkpt lat="56.8377360" lon="53.1432272"><time>2024-11-14T07:53:05.960</time></trkpt><trkpt lat="56.8376934" lon="53.1432860"><time>2024-11-14T07:53:07.940</time></trkpt><trkpt lat="56.8376636" lon="53.1433780"><time>2024-11-14T07:53:09.933</time></trkpt><trkpt lat="56.8376189" lon="53.1434591"><time>2024-11-14T07:53:11.937</time></trkpt><trkpt lat="56.8375524" lon="53.1435022"><time>2024-11-14T07:53:13.927</time></trkpt><trkpt lat="56.8374769" lon="53.1435213"><time>2024-11-14T07:53:15.943</time></trkpt><trkpt lat="56.8374091" lon="53.1435720"><time>2024-11-14T07:53:17.937</time></trkpt><trkpt lat="56.8374054" lon="53.1436726"><time>2024-11-14T07:53:25.937</time></trkpt><trkpt lat="56.8374376" lon="53.1437518"><time>2024-11-14T07:53:28</time></trkpt><trkpt lat="56.8374910" lon="53.1437816"><time>2024-11-14T07:53:29.927</time></trkpt><trkpt lat="56.8375345" lon="53.1438293"><time>2024-11-14T07:53:33.007</time></trkpt><trkpt lat="56.8375856" lon="53.1438678"><time>2024-11-14T07:53:34.937</time></trkpt><trkpt lat="56.8376502" lon="53.1439039"><time>2024-11-14T07:53:37.010</time></trkpt><trkpt lat="56.8377140" lon="53.1439421"><time>2024-11-14T07:53:39.007</time></trkpt><trkpt lat="56.8377741" lon="53.1439934"><time>2024-11-14T07:53:40.943</time></trkpt><trkpt lat="56.8378283" lon="53.1440712"><time>2024-11-14T07:53:43</time></trkpt><trkpt lat="56.8378887" lon="53.1441318"><time>2024-11-14T07:53:44.943</time></trkpt><trkpt lat="56.8379557" lon="53.1441636"><time>2024-11-14T07:53:47.010</time></trkpt><trkpt lat="56.8380136" lon="53.1442506"><time>2024-11-14T07:53:48.993</time></trkpt><trkpt lat="56.8380146" lon="53.1443821"><time>2024-11-14T07:53:50.930</time></trkpt><trkpt lat="56.8379817" lon="53.1444854"><time>2024-11-14T07:53:52.947</time></trkpt><trkpt lat="56.8379616" lon="53.1445952"><time>2024-11-14T07:53:54.947</time></trkpt><trkpt lat="56.8379425" lon="53.1447048"><time>2024-11-14T07:53:57.013</time></trkpt><trkpt lat="56.8379193" lon="53.1448076"><time>2024-11-14T07:53:59.007</time></trkpt><trkpt lat="56.8378874" lon="53.1448973"><time>2024-11-14T07:54:00.937</time></trkpt><trkpt lat="56.8378510" lon="53.1449643"><time>2024-11-14T07:54:02.983</time></trkpt><trkpt lat="56.8378086" lon="53.1450221"><time>2024-11-14T07:54:07.003</time></trkpt><trkpt lat="56.8377853" lon="53.1450964"><time>2024-11-14T07:54:09.933</time></trkpt><trkpt lat="56.8377632" lon="53.1451802"><time>2024-11-14T07:54:19.937</time></trkpt><trkpt lat="56.8377249" lon="53.1452774"><time>2024-11-14T07:54:23.937</time></trkpt><trkpt lat="56.8376874" lon="53.1453719"><time>2024-11-14T07:54:25.940</time></trkpt><trkpt lat="56.8376539" lon="53.1454675"><time>2024-11-14T07:54:27.940</time></trkpt><trkpt lat="56.8376126" lon="53.1455504"><time>2024-11-14T07:54:29.937</time></trkpt><trkpt lat="56.8375643" lon="53.1456186"><time>2024-11-14T07:54:31.937</time></trkpt><trkpt lat="56.8375190" lon="53.1456915"><time>2024-11-14T07:54:33.937</time></trkpt><trkpt lat="56.8374843" lon="53.1457586"><time>2024-11-14T07:54:36.933</time></trkpt><trkpt lat="56.8374583" lon="53.1458460"><time>2024-11-14T07:54:40.940</time></trkpt><trkpt lat="56.8374278" lon="53.1459327"><time>2024-11-14T07:54:44.937</time></trkpt><trkpt lat="56.8374022" lon="53.1460047"><time>2024-11-14T07:54:47.947</time></trkpt><trkpt lat="56.8373658" lon="53.1460932"><time>2024-11-14T07:54:49.937</time></trkpt><trkpt lat="56.8373411" lon="53.1462066"><time>2024-11-14T07:54:51.937</time></trkpt><trkpt lat="56.8373294" lon="53.1463252"><time>2024-11-14T07:54:53.933</time></trkpt><trkpt lat="56.8372988" lon="53.1464238"><time>2024-11-14T07:54:55.937</time></trkpt><trkpt lat="56.8372663" lon="53.1465050"><time>2024-11-14T07:54:58.013</time></trkpt><trkpt lat="56.8372300" lon="53.1465967"><time>2024-11-14T07:55:00.943</time></trkpt><trkpt lat="56.8371840" lon="53.1466572"><time>2024-11-14T07:55:03.980</time></trkpt><trkpt lat="56.8371421" lon="53.1467069"><time>2024-11-14T07:55:06.940</time></trkpt><trkpt lat="56.8371438" lon="53.1467947"><time>2024-11-14T07:55:09.073</time></trkpt><trkpt lat="56.8371898" lon="53.1468498"><time>2024-11-14T07:55:10.967</time></trkpt><trkpt lat="56.8372536" lon="53.1468128"><time>2024-11-14T07:55:13.967</time></trkpt><trkpt lat="56.8372963" lon="53.1467271"><time>2024-11-14T07:55:15.937</time></trkpt><trkpt lat="56.8373331" lon="53.1466315"><time>2024-11-14T07:55:18.003</time></trkpt><trkpt lat="56.8373505" lon="53.1465529"><time>2024-11-14T07:55:18.937</time></trkpt><trkpt lat="56.8373827" lon="53.1464123"><time>2024-11-14T07:55:20.930</time></trkpt><trkpt lat="56.8374146" lon="53.1462809"><time>2024-11-14T07:55:22.963</time></trkpt><trkpt lat="56.8374507" lon="53.1461633"><time>2024-11-14T07:55:24.933</time></trkpt><trkpt lat="56.8375072" lon="53.1460526"><time>2024-11-14T07:55:26.963</time></trkpt><trkpt lat="56.8375647" lon="53.1459547"><time>2024-11-14T07:55:28.940</time></trkpt><trkpt lat="56.8376225" lon="53.1458475"><time>2024-11-14T07:55:30.967</time></trkpt><trkpt lat="56.8376741" lon="53.1457239"><time>2024-11-14T07:55:32.937</time></trkpt><trkpt lat="56.8377252" lon="53.1455979"><time>2024-11-14T07:55:34.947</time></trkpt><trkpt lat="56.8377801" lon="53.1454831"><time>2024-11-14T07:55:36.943</time></trkpt><trkpt lat="56.8378329" lon="53.1453695"><time>2024-11-14T07:55:38.950</time></trkpt><trkpt lat="56.8378829" lon="53.1452526"><time>2024-11-14T07:55:40.947</time></trkpt><trkpt lat="56.8379303" lon="53.1451370"><time>2024-11-14T07:55:43.013</time></trkpt><trkpt lat="56.8379758" lon="53.1450220"><time>2024-11-14T07:55:44.943</time></trkpt><trkpt lat="56.8380098" lon="53.1448985"><time>2024-11-14T07:55:46.987</time></trkpt><trkpt lat="56.8380321" lon="53.1447625"><time>2024-11-14T07:55:48.997</time></trkpt><trkpt lat="56.8380433" lon="53.1446267"><time>2024-11-14T07:55:50.947</time></trkpt><trkpt lat="56.8380556" lon="53.1444979"><time>2024-11-14T07:55:52.930</time></trkpt><trkpt lat="56.8380785" lon="53.1443793"><time>2024-11-14T07:55:54.940</time></trkpt><trkpt lat="56.8380871" lon="53.1442691"><time>2024-11-14T07:55:56.943</time></trkpt><trkpt lat="56.8381001" lon="53.1441862"><time>2024-11-14T07:55:58.943</time></trkpt><trkpt lat="56.8380538" lon="53.1441855"><time>2024-11-14T07:56:16.950</time></trkpt><trkpt lat="56.8379772" lon="53.1441976"><time>2024-11-14T07:56:18.943</time></trkpt><trkpt lat="56.8378967" lon="53.1441682"><time>2024-11-14T07:56:20.937</time></trkpt><trkpt lat="56.8378173" lon="53.1441417"><time>2024-11-14T07:56:22.940</time></trkpt><trkpt lat="56.8377453" lon="53.1441550"><time>2024-11-14T07:56:24.940</time></trkpt><trkpt lat="56.8376745" lon="53.1441260"><time>2024-11-14T07:56:26.940</time></trkpt><trkpt lat="56.8376097" lon="53.1440494"><time>2024-11-14T07:56:29.010</time></trkpt><trkpt lat="56.8375494" lon="53.1439666"><time>2024-11-14T07:56:30.937</time></trkpt><trkpt lat="56.8374942" lon="53.1438966"><time>2024-11-14T07:56:33.013</time></trkpt><trkpt lat="56.8374361" lon="53.1438461"><time>2024-11-14T07:56:34.937</time></trkpt><trkpt lat="56.8373771" lon="53.1438014"><time>2024-11-14T07:56:37.013</time></trkpt><trkpt lat="56.8373175" lon="53.1437431"><time>2024-11-14T07:56:38.933</time></trkpt><trkpt lat="56.8372598" lon="53.1436658"><time>2024-11-14T07:56:40.940</time></trkpt><trkpt lat="56.8372044" lon="53.1435883"><time>2024-11-14T07:56:42.927</time></trkpt><trkpt lat="56.8371517" lon="53.1435180"><time>2024-11-14T07:56:44.933</time></trkpt><trkpt lat="56.8371026" lon="53.1434439"><time>2024-11-14T07:56:46.963</time></trkpt><trkpt lat="56.8370574" lon="53.1433687"><time>2024-11-14T07:56:48.940</time></trkpt><trkpt lat="56.8370029" lon="53.1433046"><time>2024-11-14T07:56:50.930</time></trkpt><trkpt lat="56.8369448" lon="53.1432942"><time>2024-11-14T07:56:52.970</time></trkpt><trkpt lat="56.8369092" lon="53.1433752"><time>2024-11-14T07:56:54.937</time></trkpt><trkpt lat="56.8368862" lon="53.1434781"><time>2024-11-14T07:56:56.940</time></trkpt><trkpt lat="56.8368495" lon="53.1435713"><time>2024-11-14T07:56:58.980</time></trkpt><trkpt lat="56.8368015" lon="53.1436510"><time>2024-11-14T07:57:00.940</time></trkpt><trkpt lat="56.8367560" lon="53.1437109"><time>2024-11-14T07:57:02.947</time></trkpt><trkpt lat="56.8366974" lon="53.1437417"><time>2024-11-14T07:57:04.950</time></trkpt><trkpt lat="56.8366337" lon="53.1437670"><time>2024-11-14T07:57:06.943</time></trkpt><trkpt lat="56.8365716" lon="53.1438057"><time>2024-11-14T07:57:08.947</time></trkpt><trkpt lat="56.8365072" lon="53.1438429"><time>2024-11-14T07:57:10.950</time></trkpt><trkpt lat="56.8364379" lon="53.1438508"><time>2024-11-14T07:57:12.947</time></trkpt><trkpt lat="56.8363694" lon="53.1438919"><time>2024-11-14T07:57:14.943</time></trkpt><trkpt lat="56.8363004" lon="53.1439524"><time>2024-11-14T07:57:17.040</time></trkpt><trkpt lat="56.8362346" lon="53.1439967"><time>2024-11-14T07:57:19.007</time></trkpt><trkpt lat="56.8361736" lon="53.1439910"><time>2024-11-14T07:57:20.937</time></trkpt><trkpt lat="56.8361105" lon="53.1439694"><time>2024-11-14T07:57:23.007</time></trkpt><trkpt lat="56.8360437" lon="53.1439882"><time>2024-11-14T07:57:24.937</time></trkpt><trkpt lat="56.8359789" lon="53.1440005"><time>2024-11-14T07:57:27.007</time></trkpt><trkpt lat="56.8359113" lon="53.1440192"><time>2024-11-14T07:57:29.023</time></trkpt><trkpt lat="56.8358447" lon="53.1440503"><time>2024-11-14T07:57:30.923</time></trkpt><trkpt lat="56.8357881" lon="53.1440627"><time>2024-11-14T07:57:33.017</time></trkpt><trkpt lat="56.8357283" lon="53.1440839"><time>2024-11-14T07:57:36.020</time></trkpt><trkpt lat="56.8356698" lon="53.1440989"><time>2024-11-14T07:57:39.010</time></trkpt><trkpt lat="56.8356121" lon="53.1441206"><time>2024-11-14T07:57:42.017</time></trkpt><trkpt lat="56.8355573" lon="53.1441271"><time>2024-11-14T07:57:44.940</time></trkpt><trkpt lat="56.8355067" lon="53.1441472"><time>2024-11-14T07:57:47.930</time></trkpt><trkpt lat="56.8354574" lon="53.1441651"><time>2024-11-14T07:57:50.933</time></trkpt><trkpt lat="56.8354003" lon="53.1441672"><time>2024-11-14T07:57:53.997</time></trkpt><trkpt lat="56.8353523" lon="53.1441925"><time>2024-11-14T07:57:56.937</time></trkpt><trkpt lat="56.8352967" lon="53.1441844"><time>2024-11-14T07:57:59.940</time></trkpt><trkpt lat="56.8352517" lon="53.1441815"><time>2024-11-14T07:58:02.017</time></trkpt><trkpt lat="56.8351879" lon="53.1441937"><time>2024-11-14T07:58:04.930</time></trkpt><trkpt lat="56.8351255" lon="53.1441826"><time>2024-11-14T07:58:08.013</time></trkpt><trkpt lat="56.8350666" lon="53.1441922"><time>2024-11-14T07:58:10.937</time></trkpt><trkpt lat="56.8350166" lon="53.1442253"><time>2024-11-14T07:58:14.007</time></trkpt><trkpt lat="56.8349803" lon="53.1442752"><time>2024-11-14T07:58:17.020</time></trkpt><trkpt lat="56.8349310" lon="53.1442948"><time>2024-11-14T07:58:20.943</time></trkpt><trkpt lat="56.8348781" lon="53.1443117"><time>2024-11-14T07:58:24.953</time></trkpt><trkpt lat="56.8348199" lon="53.1443079"><time>2024-11-14T07:58:27.943</time></trkpt><trkpt lat="56.8348294" lon="53.1443117"><time>2024-11-14T07:58:29.027</time></trkpt><trkpt lat="56.8347601" lon="53.1443217"><time>2024-11-14T07:58:30.930</time></trkpt><trkpt lat="56.8347073" lon="53.1442925"><time>2024-11-14T07:58:34.020</time></trkpt><trkpt lat="56.8346551" lon="53.1442431"><time>2024-11-14T07:58:36.940</time></trkpt><trkpt lat="56.8346225" lon="53.1441692"><time>2024-11-14T07:58:40.947</time></trkpt><trkpt lat="56.8345770" lon="53.1441723"><time>2024-11-14T07:58:45.940</time></trkpt><trkpt lat="56.8345241" lon="53.1441561"><time>2024-11-14T07:58:48.940</time></trkpt><trkpt lat="56.8344892" lon="53.1441009"><time>2024-11-14T07:58:50.933</time></trkpt><trkpt lat="56.8344499" lon="53.1440183"><time>2024-11-14T07:59:03.927</time></trkpt><trkpt lat="56.8344080" lon="53.1439853"><time>2024-11-14T07:59:05.927</time></trkpt><trkpt lat="56.8343565" lon="53.1439564"><time>2024-11-14T07:59:07.940</time></trkpt><trkpt lat="56.8342776" lon="53.1439377"><time>2024-11-14T07:59:09.937</time></trkpt><trkpt lat="56.8342057" lon="53.1439235"><time>2024-11-14T07:59:11.927</time></trkpt><trkpt lat="56.8341572" lon="53.1439029"><time>2024-11-14T07:59:13.937</time></trkpt><trkpt lat="56.8341012" lon="53.1439086"><time>2024-11-14T07:59:16.937</time></trkpt><trkpt lat="56.8340369" lon="53.1439397"><time>2024-11-14T07:59:18.943</time></trkpt><trkpt lat="56.8339757" lon="53.1439650"><time>2024-11-14T07:59:20.957</time></trkpt><trkpt lat="56.8338784" lon="53.1440278"><time>2024-11-14T07:59:22.143</time></trkpt><trkpt lat="56.8338433" lon="53.1439560"><time>2024-11-14T07:59:31.940</time></trkpt><trkpt lat="56.8338181" lon="53.1438633"><time>2024-11-14T07:59:37.930</time></trkpt><trkpt lat="56.8337995" lon="53.1437743"><time>2024-11-14T07:59:41.940</time></trkpt><trkpt lat="56.8337762" lon="53.1436842"><time>2024-11-14T07:59:45.937</time></trkpt><trkpt lat="56.8337508" lon="53.1435925"><time>2024-11-14T07:59:49.943</time></trkpt><trkpt lat="56.8337658" lon="53.1434985"><time>2024-11-14T07:59:52.940</time></trkpt><trkpt lat="56.8337770" lon="53.1434125"><time>2024-11-14T07:59:55.997</time></trkpt><trkpt lat="56.8337620" lon="53.1433197"><time>2024-11-14T07:59:59.937</time></trkpt><trkpt lat="56.8337091" lon="53.1433163"><time>2024-11-14T08:00:03.020</time></trkpt><trkpt lat="56.8336607" lon="53.1432891"><time>2024-11-14T08:00:08.937</time></trkpt><trkpt lat="56.8336023" lon="53.1433216"><time>2024-11-14T08:00:13.027</time></trkpt><trkpt lat="56.8335487" lon="53.1433501"><time>2024-11-14T08:00:14.937</time></trkpt><trkpt lat="56.8334505" lon="53.1434078"><time>2024-11-14T08:00:16.007</time></trkpt><trkpt lat="56.8334038" lon="53.1434348"><time>2024-11-14T08:00:16.923</time></trkpt><trkpt lat="56.8333121" lon="53.1434513"><time>2024-11-14T08:00:18.933</time></trkpt><trkpt lat="56.8332519" lon="53.1434584"><time>2024-11-14T08:00:20.947</time></trkpt><trkpt lat="56.8332519" lon="53.1434584"><time>2024-11-14T08:00:20.997</time></trkpt><trkpt lat="56.8331984" lon="53.1434722"><time>2024-11-14T08:00:22.950</time></trkpt><trkpt lat="56.8331273" lon="53.1434748"><time>2024-11-14T08:00:24.030</time></trkpt><trkpt lat="56.8330729" lon="53.1434691"><time>2024-11-14T08:00:24.930</time></trkpt><trkpt lat="56.8330277" lon="53.1434632"><time>2024-11-14T08:00:25.930</time></trkpt><trkpt lat="56.8329634" lon="53.1434196"><time>2024-11-14T08:00:26.937</time></trkpt><trkpt lat="56.8329208" lon="53.1433702"><time>2024-11-14T08:00:28.937</time></trkpt><trkpt lat="56.8328776" lon="53.1432975"><time>2024-11-14T08:00:30.940</time></trkpt><trkpt lat="56.8328394" lon="53.1432199"><time>2024-11-14T08:00:32.937</time></trkpt><trkpt lat="56.8327940" lon="53.1431639"><time>2024-11-14T08:00:34.940</time></trkpt><trkpt lat="56.8327469" lon="53.1431239"><time>2024-11-14T08:00:36.937</time></trkpt><trkpt lat="56.8327006" lon="53.1431022"><time>2024-11-14T08:00:38.940</time></trkpt><trkpt lat="56.8326510" lon="53.1431198"><time>2024-11-14T08:00:42.930</time></trkpt><trkpt lat="56.8326959" lon="53.1431554"><time>2024-11-14T08:00:51.947</time></trkpt><trkpt lat="56.8327423" lon="53.1431554"><time>2024-11-14T08:00:55.943</time></trkpt><trkpt lat="56.8327876" lon="53.1431714"><time>2024-11-14T08:00:58.967</time></trkpt><trkpt lat="56.8328380" lon="53.1432043"><time>2024-11-14T08:01:01.967</time></trkpt><trkpt lat="56.8328804" lon="53.1432471"><time>2024-11-14T08:01:04.930</time></trkpt><trkpt lat="56.8329182" lon="53.1432953"><time>2024-11-14T08:01:07.003</time></trkpt><trkpt lat="56.8329484" lon="53.1433716"><time>2024-11-14T08:01:09.020</time></trkpt><trkpt lat="56.8329716" lon="53.1434559"><time>2024-11-14T08:01:10.940</time></trkpt><trkpt lat="56.8330015" lon="53.1435296"><time>2024-11-14T08:01:13.010</time></trkpt><trkpt lat="56.8330199" lon="53.1436184"><time>2024-11-14T08:01:15.943</time></trkpt><trkpt lat="56.8330589" lon="53.1436597"><time>2024-11-14T08:01:49.007</time></trkpt><trkpt lat="56.8330134" lon="53.1436341"><time>2024-11-14T08:01:59.003</time></trkpt><trkpt lat="56.8329672" lon="53.1436705"><time>2024-11-14T08:02:02.940</time></trkpt><trkpt lat="56.8329729" lon="53.1437630"><time>2024-11-14T08:02:06.940</time></trkpt><trkpt lat="56.8329820" lon="53.1438693"><time>2024-11-14T08:02:10.937</time></trkpt><trkpt lat="56.8329919" lon="53.1439558"><time>2024-11-14T08:02:15.927</time></trkpt><trkpt lat="56.8330225" lon="53.1440227"><time>2024-11-14T08:02:23.023</time></trkpt><trkpt lat="56.8330472" lon="53.1440968"><time>2024-11-14T08:02:28.010</time></trkpt><trkpt lat="56.8330595" lon="53.1442011"><time>2024-11-14T08:02:32.013</time></trkpt><trkpt lat="56.8330779" lon="53.1442842"><time>2024-11-14T08:02:34.003</time></trkpt><trkpt lat="56.8330984" lon="53.1443722"><time>2024-11-14T08:02:36.013</time></trkpt><trkpt lat="56.8331144" lon="53.1444661"><time>2024-11-14T08:02:37.930</time></trkpt><trkpt lat="56.8331220" lon="53.1445628"><time>2024-11-14T08:02:39.943</time></trkpt><trkpt lat="56.8331216" lon="53.1446608"><time>2024-11-14T08:02:42.010</time></trkpt><trkpt lat="56.8331065" lon="53.1447549"><time>2024-11-14T08:02:44.010</time></trkpt><trkpt lat="56.8330855" lon="53.1448521"><time>2024-11-14T08:02:45.943</time></trkpt><trkpt lat="56.8330647" lon="53.1449683"><time>2024-11-14T08:02:48.003</time></trkpt><trkpt lat="56.8330428" lon="53.1450868"><time>2024-11-14T08:02:49.943</time></trkpt><trkpt lat="56.8330161" lon="53.1452007"><time>2024-11-14T08:02:51.987</time></trkpt><trkpt lat="56.8329857" lon="53.1453175"><time>2024-11-14T08:02:53.990</time></trkpt><trkpt lat="56.8329504" lon="53.1454346"><time>2024-11-14T08:02:55.947</time></trkpt><trkpt lat="56.8329164" lon="53.1455441"><time>2024-11-14T08:02:58.023</time></trkpt><trkpt lat="56.8328880" lon="53.1456459"><time>2024-11-14T08:02:59.973</time></trkpt><trkpt lat="56.8328642" lon="53.1457263"><time>2024-11-14T08:03:01.933</time></trkpt><trkpt lat="56.8328311" lon="53.1458264"><time>2024-11-14T08:03:04.037</time></trkpt><trkpt lat="56.8327898" lon="53.1459327"><time>2024-11-14T08:03:05.977</time></trkpt><trkpt lat="56.8327488" lon="53.1460260"><time>2024-11-14T08:03:07.977</time></trkpt><trkpt lat="56.8327090" lon="53.1461384"><time>2024-11-14T08:03:09.937</time></trkpt><trkpt lat="56.8326819" lon="53.1462656"><time>2024-11-14T08:03:11.937</time></trkpt><trkpt lat="56.8326701" lon="53.1463991"><time>2024-11-14T08:03:13.937</time></trkpt><trkpt lat="56.8326688" lon="53.1465283"><time>2024-11-14T08:03:15.930</time></trkpt><trkpt lat="56.8326599" lon="53.1466536"><time>2024-11-14T08:03:17.943</time></trkpt><trkpt lat="56.8326474" lon="53.1467823"><time>2024-11-14T08:03:19.940</time></trkpt><trkpt lat="56.8326252" lon="53.1469067"><time>2024-11-14T08:03:21.963</time></trkpt><trkpt lat="56.8325647" lon="53.1469864"><time>2024-11-14T08:03:23.933</time></trkpt><trkpt lat="56.8324967" lon="53.1470299"><time>2024-11-14T08:03:25.927</time></trkpt><trkpt lat="56.8324248" lon="53.1470700"><time>2024-11-14T08:03:27.937</time></trkpt><trkpt lat="56.8323465" lon="53.1471220"><time>2024-11-14T08:03:29.937</time></trkpt><trkpt lat="56.8322624" lon="53.1471791"><time>2024-11-14T08:03:31.937</time></trkpt><trkpt lat="56.8322199" lon="53.1472143"><time>2024-11-14T08:03:32.937</time></trkpt><trkpt lat="56.8321770" lon="53.1472451"><time>2024-11-14T08:03:33.953</time></trkpt><trkpt lat="56.8320881" lon="53.1473637"><time>2024-11-14T08:03:35.070</time></trkpt><trkpt lat="56.8320856" lon="53.1474596"><time>2024-11-14T08:03:38.937</time></trkpt><trkpt lat="56.8321047" lon="53.1475755"><time>2024-11-14T08:03:40.940</time></trkpt><trkpt lat="56.8320887" lon="53.1476564"><time>2024-11-14T08:03:42.937</time></trkpt><trkpt lat="56.8320487" lon="53.1477218"><time>2024-11-14T08:03:44.933</time></trkpt><trkpt lat="56.8319765" lon="53.1477899"><time>2024-11-14T08:03:46.943</time></trkpt><trkpt lat="56.8318978" lon="53.1478358"><time>2024-11-14T08:03:48.937</time></trkpt><trkpt lat="56.8318445" lon="53.1479209"><time>2024-11-14T08:03:50.933</time></trkpt><trkpt lat="56.8318260" lon="53.1480435"><time>2024-11-14T08:03:52.937</time></trkpt><trkpt lat="56.8318207" lon="53.1481772"><time>2024-11-14T08:03:54.940</time></trkpt><trkpt lat="56.8318224" lon="53.1483169"><time>2024-11-14T08:03:56.943</time></trkpt><trkpt lat="56.8318261" lon="53.1484349"><time>2024-11-14T08:03:58.943</time></trkpt><trkpt lat="56.8318354" lon="53.1485376"><time>2024-11-14T08:04:00.937</time></trkpt><trkpt lat="56.8318417" lon="53.1486247"><time>2024-11-14T08:04:02.937</time></trkpt><trkpt lat="56.8318655" lon="53.1487195"><time>2024-11-14T08:04:05.940</time></trkpt><trkpt lat="56.8319013" lon="53.1487853"><time>2024-11-14T08:04:07.993</time></trkpt><trkpt lat="56.8318793" lon="53.1488094"><time>2024-11-14T08:04:09.060</time></trkpt><trkpt lat="56.8318884" lon="53.1489081"><time>2024-11-14T08:04:09.930</time></trkpt><trkpt lat="56.8318935" lon="53.1489971"><time>2024-11-14T08:04:10.937</time></trkpt><trkpt lat="56.8318996" lon="53.1490929"><time>2024-11-14T08:04:12</time></trkpt><trkpt lat="56.8319040" lon="53.1491772"><time>2024-11-14T08:04:12.980</time></trkpt><trkpt lat="56.8319134" lon="53.1492727"><time>2024-11-14T08:04:14.950</time></trkpt><trkpt lat="56.8319312" lon="53.1493876"><time>2024-11-14T08:04:16.937</time></trkpt><trkpt lat="56.8319505" lon="53.1495249"><time>2024-11-14T08:04:18.960</time></trkpt><trkpt lat="56.8319419" lon="53.1496674"><time>2024-11-14T08:04:20.930</time></trkpt><trkpt lat="56.8319122" lon="53.1497898"><time>2024-11-14T08:04:23.030</time></trkpt><trkpt lat="56.8318915" lon="53.1499277"><time>2024-11-14T08:04:25</time></trkpt><trkpt lat="56.8318349" lon="53.1500119"><time>2024-11-14T08:04:26.203</time></trkpt><trkpt lat="56.8317764" lon="53.1500787"><time>2024-11-14T08:04:27.993</time></trkpt><trkpt lat="56.8317356" lon="53.1500244"><time>2024-11-14T08:04:29.937</time></trkpt><trkpt lat="56.8316754" lon="53.1500023"><time>2024-11-14T08:04:31.987</time></trkpt><trkpt lat="56.8316134" lon="53.1499917"><time>2024-11-14T08:04:34.037</time></trkpt><trkpt lat="56.8316134" lon="53.1499917"><time>2024-11-14T08:04:34.067</time></trkpt><trkpt lat="56.8315509" lon="53.1500041"><time>2024-11-14T08:04:35.940</time></trkpt><trkpt lat="56.8315201" lon="53.1500327"><time>2024-11-14T08:04:37.013</time></trkpt><trkpt lat="56.8315357" lon="53.1501159"><time>2024-11-14T08:04:40.933</time></trkpt><trkpt lat="56.8315202" lon="53.1502027"><time>2024-11-14T08:04:42.930</time></trkpt><trkpt lat="56.8314850" lon="53.1502826"><time>2024-11-14T08:04:56.987</time></trkpt><trkpt lat="56.8314738" lon="53.1503789"><time>2024-11-14T08:05:00.933</time></trkpt><trkpt lat="56.8315347" lon="53.1504330"><time>2024-11-14T08:05:04.007</time></trkpt><trkpt lat="56.8316041" lon="53.1504360"><time>2024-11-14T08:05:05.933</time></trkpt><trkpt lat="56.8316747" lon="53.1504935"><time>2024-11-14T08:05:07.990</time></trkpt><trkpt lat="56.8317475" lon="53.1505401"><time>2024-11-14T08:05:09.933</time></trkpt><trkpt lat="56.8318083" lon="53.1506117"><time>2024-11-14T08:05:11.990</time></trkpt><trkpt lat="56.8318613" lon="53.1507253"><time>2024-11-14T08:05:13.960</time></trkpt><trkpt lat="56.8319123" lon="53.1508149"><time>2024-11-14T08:05:15.937</time></trkpt><trkpt lat="56.8319603" lon="53.1509054"><time>2024-11-14T08:05:18.003</time></trkpt><trkpt lat="56.8320006" lon="53.1510056"><time>2024-11-14T08:05:19.933</time></trkpt><trkpt lat="56.8320189" lon="53.1511319"><time>2024-11-14T08:05:21.993</time></trkpt><trkpt lat="56.8320529" lon="53.1512278"><time>2024-11-14T08:05:23.960</time></trkpt><trkpt lat="56.8320935" lon="53.1513093"><time>2024-11-14T08:05:25.927</time></trkpt><trkpt lat="56.8321240" lon="53.1514263"><time>2024-11-14T08:05:27.997</time></trkpt><trkpt lat="56.8321685" lon="53.1515254"><time>2024-11-14T08:05:29.997</time></trkpt><trkpt lat="56.8321710" lon="53.1515526"><time>2024-11-14T08:05:31.060</time></trkpt><trkpt lat="56.8322137" lon="53.1516288"><time>2024-11-14T08:05:31.927</time></trkpt><trkpt lat="56.8322492" lon="53.1516813"><time>2024-11-14T08:05:32.930</time></trkpt><trkpt lat="56.8322889" lon="53.1517257"><time>2024-11-14T08:05:33.933</time></trkpt><trkpt lat="56.8323048" lon="53.1518343"><time>2024-11-14T08:05:35.937</time></trkpt><trkpt lat="56.8323284" lon="53.1519242"><time>2024-11-14T08:05:37.933</time></trkpt><trkpt lat="56.8323667" lon="53.1520045"><time>2024-11-14T08:05:39.933</time></trkpt><trkpt lat="56.8324126" lon="53.1520800"><time>2024-11-14T08:05:41.937</time></trkpt><trkpt lat="56.8324576" lon="53.1521878"><time>2024-11-14T08:05:43.930</time></trkpt><trkpt lat="56.8325108" lon="53.1522880"><time>2024-11-14T08:05:45.933</time></trkpt><trkpt lat="56.8325675" lon="53.1523605"><time>2024-11-14T08:05:47.937</time></trkpt><trkpt lat="56.8326157" lon="53.1524208"><time>2024-11-14T08:05:49.937</time></trkpt><trkpt lat="56.8326598" lon="53.1524889"><time>2024-11-14T08:05:52.937</time></trkpt><trkpt lat="56.8326920" lon="53.1525476"><time>2024-11-14T08:05:56.933</time></trkpt><trkpt lat="56.8327462" lon="53.1525952"><time>2024-11-14T08:06:00.937</time></trkpt><trkpt lat="56.8327857" lon="53.1526412"><time>2024-11-14T08:06:02.977</time></trkpt><trkpt lat="56.8328304" lon="53.1527355"><time>2024-11-14T08:06:04.037</time></trkpt><trkpt lat="56.8328804" lon="53.1527734"><time>2024-11-14T08:06:04.927</time></trkpt><trkpt lat="56.8329351" lon="53.1528584"><time>2024-11-14T08:06:06.937</time></trkpt><trkpt lat="56.8329772" lon="53.1529357"><time>2024-11-14T08:06:08.940</time></trkpt><trkpt lat="56.8330220" lon="53.1529898"><time>2024-11-14T08:06:10.937</time></trkpt><trkpt lat="56.8330602" lon="53.1530560"><time>2024-11-14T08:06:12.933</time></trkpt><trkpt lat="56.8330935" lon="53.1531270"><time>2024-11-14T08:06:14.940</time></trkpt><trkpt lat="56.8331266" lon="53.1532101"><time>2024-11-14T08:06:17.933</time></trkpt><trkpt lat="56.8331487" lon="53.1532890"><time>2024-11-14T08:06:20.017</time></trkpt><trkpt lat="56.8331715" lon="53.1533454"><time>2024-11-14T08:06:21.077</time></trkpt><trkpt lat="56.8332156" lon="53.1534308"><time>2024-11-14T08:06:22.933</time></trkpt><trkpt lat="56.8332338" lon="53.1535161"><time>2024-11-14T08:06:24.933</time></trkpt><trkpt lat="56.8332427" lon="53.1536028"><time>2024-11-14T08:06:26.937</time></trkpt><trkpt lat="56.8332507" lon="53.1537149"><time>2024-11-14T08:06:29.947</time></trkpt><trkpt lat="56.8332433" lon="53.1538014"><time>2024-11-14T08:06:33.003</time></trkpt><trkpt lat="56.8332639" lon="53.1538864"><time>2024-11-14T08:06:45.940</time></trkpt><trkpt lat="56.8333019" lon="53.1539478"><time>2024-11-14T08:06:49.937</time></trkpt><trkpt lat="56.8332968" lon="53.1538645"><time>2024-11-14T08:06:53.937</time></trkpt><trkpt lat="56.8333151" lon="53.1539608"><time>2024-11-14T08:07:01.940</time></trkpt><trkpt lat="56.8332849" lon="53.1538489"><time>2024-11-14T08:07:09.047</time></trkpt><trkpt lat="56.8332501" lon="53.1537848"><time>2024-11-14T08:07:10.940</time></trkpt><trkpt lat="56.8332197" lon="53.1537051"><time>2024-11-14T08:07:13.047</time></trkpt><trkpt lat="56.8331857" lon="53.1536223"><time>2024-11-14T08:07:15.943</time></trkpt><trkpt lat="56.8331656" lon="53.1535140"><time>2024-11-14T08:07:18.937</time></trkpt><trkpt lat="56.8331341" lon="53.1534450"><time>2024-11-14T08:07:20.940</time></trkpt><trkpt lat="56.8331036" lon="53.1533423"><time>2024-11-14T08:07:23.990</time></trkpt><trkpt lat="56.8330878" lon="53.1533387"><time>2024-11-14T08:07:25.060</time></trkpt><trkpt lat="56.8330135" lon="53.1532767"><time>2024-11-14T08:07:28.937</time></trkpt><trkpt lat="56.8330223" lon="53.1531541"><time>2024-11-14T08:07:35.940</time></trkpt><trkpt lat="56.8330632" lon="53.1531184"><time>2024-11-14T08:07:46.947</time></trkpt><trkpt lat="56.8331043" lon="53.1530763"><time>2024-11-14T08:08:00.943</time></trkpt><trkpt lat="56.8331510" lon="53.1530731"><time>2024-11-14T08:08:05.930</time></trkpt><trkpt lat="56.8332120" lon="53.1530502"><time>2024-11-14T08:08:09.020</time></trkpt><trkpt lat="56.8332700" lon="53.1530581"><time>2024-11-14T08:08:10.310</time></trkpt><trkpt lat="56.8333374" lon="53.1530302"><time>2024-11-14T08:08:11.940</time></trkpt><trkpt lat="56.8333830" lon="53.1530184"><time>2024-11-14T08:08:13.933</time></trkpt><trkpt lat="56.8334367" lon="53.1529835"><time>2024-11-14T08:08:17.940</time></trkpt><trkpt lat="56.8334775" lon="53.1530287"><time>2024-11-14T08:08:29.947</time></trkpt><trkpt lat="56.8335112" lon="53.1531179"><time>2024-11-14T08:08:31.933</time></trkpt><trkpt lat="56.8335235" lon="53.1532133"><time>2024-11-14T08:08:33.960</time></trkpt><trkpt lat="56.8335235" lon="53.1532133"><time>2024-11-14T08:08:34</time></trkpt><trkpt lat="56.8335251" lon="53.1532992"><time>2024-11-14T08:08:35.960</time></trkpt><trkpt lat="56.8335094" lon="53.1532634"><time>2024-11-14T08:08:37.040</time></trkpt><trkpt lat="56.8334470" lon="53.1531829"><time>2024-11-14T08:08:51.020</time></trkpt><trkpt lat="56.8334231" lon="53.1530609"><time>2024-11-14T08:08:54.940</time></trkpt><trkpt lat="56.8333874" lon="53.1529466"><time>2024-11-14T08:08:57.010</time></trkpt><trkpt lat="56.8333341" lon="53.1528498"><time>2024-11-14T08:08:59.043</time></trkpt><trkpt lat="56.8332493" lon="53.1527611"><time>2024-11-14T08:09:00.967</time></trkpt><trkpt lat="56.8332037" lon="53.1527168"><time>2024-11-14T08:09:02.010</time></trkpt><trkpt lat="56.8331605" lon="53.1526802"><time>2024-11-14T08:09:03.023</time></trkpt><trkpt lat="56.8331181" lon="53.1526469"><time>2024-11-14T08:09:03.937</time></trkpt><trkpt lat="56.8330455" lon="53.1525737"><time>2024-11-14T08:09:05.943</time></trkpt><trkpt lat="56.8329759" lon="53.1524974"><time>2024-11-14T08:09:07.933</time></trkpt><trkpt lat="56.8329001" lon="53.1524326"><time>2024-11-14T08:09:09.940</time></trkpt><trkpt lat="56.8328238" lon="53.1523891"><time>2024-11-14T08:09:12.007</time></trkpt><trkpt lat="56.8327504" lon="53.1523626"><time>2024-11-14T08:09:14.017</time></trkpt><trkpt lat="56.8327037" lon="53.1522998"><time>2024-11-14T08:09:15.940</time></trkpt><trkpt lat="56.8326632" lon="53.1522319"><time>2024-11-14T08:09:19.940</time></trkpt><trkpt lat="56.8326162" lon="53.1522297"><time>2024-11-14T08:09:22.023</time></trkpt><trkpt lat="56.8325662" lon="53.1522619"><time>2024-11-14T08:09:23.993</time></trkpt><trkpt lat="56.8325208" lon="53.1522942"><time>2024-11-14T08:09:25.947</time></trkpt><trkpt lat="56.8324732" lon="53.1523191"><time>2024-11-14T08:09:27.967</time></trkpt><trkpt lat="56.8324209" lon="53.1523356"><time>2024-11-14T08:09:29.940</time></trkpt><trkpt lat="56.8323626" lon="53.1523297"><time>2024-11-14T08:09:31.940</time></trkpt><trkpt lat="56.8323024" lon="53.1523315"><time>2024-11-14T08:09:34.073</time></trkpt><trkpt lat="56.8322388" lon="53.1523352"><time>2024-11-14T08:09:35.947</time></trkpt><trkpt lat="56.8321686" lon="53.1522971"><time>2024-11-14T08:09:38.023</time></trkpt><trkpt lat="56.8321208" lon="53.1521613"><time>2024-11-14T08:09:39.937</time></trkpt><trkpt lat="56.8321116" lon="53.1520808"><time>2024-11-14T08:09:40.933</time></trkpt><trkpt lat="56.8321083" lon="53.1519974"><time>2024-11-14T08:09:41.937</time></trkpt><trkpt lat="56.8320748" lon="53.1518616"><time>2024-11-14T08:09:43.937</time></trkpt><trkpt lat="56.8320064" lon="53.1517971"><time>2024-11-14T08:09:45.940</time></trkpt><trkpt lat="56.8319202" lon="53.1517730"><time>2024-11-14T08:09:47.937</time></trkpt><trkpt lat="56.8318561" lon="53.1517049"><time>2024-11-14T08:09:49.940</time></trkpt><trkpt lat="56.8318229" lon="53.1516330"><time>2024-11-14T08:09:51.937</time></trkpt><trkpt lat="56.8317899" lon="53.1515715"><time>2024-11-14T08:09:53.933</time></trkpt><trkpt lat="56.8317468" lon="53.1515267"><time>2024-11-14T08:09:55.937</time></trkpt><trkpt lat="56.8317057" lon="53.1514813"><time>2024-11-14T08:09:57.937</time></trkpt><trkpt lat="56.8316666" lon="53.1514349"><time>2024-11-14T08:09:59.937</time></trkpt><trkpt lat="56.8316181" lon="53.1514020"><time>2024-11-14T08:10:01.940</time></trkpt><trkpt lat="56.8315694" lon="53.1513592"><time>2024-11-14T08:10:03.937</time></trkpt><trkpt lat="56.8315232" lon="53.1513197"><time>2024-11-14T08:10:05.943</time></trkpt><trkpt lat="56.8314710" lon="53.1512362"><time>2024-11-14T08:10:07.937</time></trkpt><trkpt lat="56.8314485" lon="53.1511644"><time>2024-11-14T08:10:08.937</time></trkpt><trkpt lat="56.8314278" lon="53.1510790"><time>2024-11-14T08:10:09.940</time></trkpt><trkpt lat="56.8314085" lon="53.1509919"><time>2024-11-14T08:10:10.943</time></trkpt><trkpt lat="56.8313915" lon="53.1509022"><time>2024-11-14T08:10:11.937</time></trkpt><trkpt lat="56.8313786" lon="53.1508029"><time>2024-11-14T08:10:12.937</time></trkpt><trkpt lat="56.8313606" lon="53.1507142"><time>2024-11-14T08:10:13.937</time></trkpt><trkpt lat="56.8313349" lon="53.1506374"><time>2024-11-14T08:10:14.940</time></trkpt><trkpt lat="56.8312735" lon="53.1505470"><time>2024-11-14T08:10:16.940</time></trkpt><trkpt lat="56.8312107" lon="53.1504960"><time>2024-11-14T08:10:18.937</time></trkpt><trkpt lat="56.8311584" lon="53.1504241"><time>2024-11-14T08:10:20.943</time></trkpt><trkpt lat="56.8311368" lon="53.1502913"><time>2024-11-14T08:10:22.937</time></trkpt><trkpt lat="56.8311427" lon="53.1501392"><time>2024-11-14T08:10:24.940</time></trkpt><trkpt lat="56.8311416" lon="53.1499936"><time>2024-11-14T08:10:26.943</time></trkpt><trkpt lat="56.8311415" lon="53.1498514"><time>2024-11-14T08:10:28.937</time></trkpt><trkpt lat="56.8311349" lon="53.1497087"><time>2024-11-14T08:10:30.940</time></trkpt><trkpt lat="56.8310851" lon="53.1495774"><time>2024-11-14T08:10:32.937</time></trkpt><trkpt lat="56.8310298" lon="53.1494590"><time>2024-11-14T08:10:34.940</time></trkpt><trkpt lat="56.8309922" lon="53.1493370"><time>2024-11-14T08:10:36.957</time></trkpt><trkpt lat="56.8309455" lon="53.1492196"><time>2024-11-14T08:10:38.933</time></trkpt><trkpt lat="56.8309115" lon="53.1491159"><time>2024-11-14T08:10:40.940</time></trkpt><trkpt lat="56.8308969" lon="53.1490240"><time>2024-11-14T08:10:42.930</time></trkpt><trkpt lat="56.8308813" lon="53.1489250"><time>2024-11-14T08:10:44.943</time></trkpt><trkpt lat="56.8308579" lon="53.1488382"><time>2024-11-14T08:10:47.013</time></trkpt><trkpt lat="56.8308299" lon="53.1487479"><time>2024-11-14T08:10:49.007</time></trkpt><trkpt lat="56.8308215" lon="53.1486615"><time>2024-11-14T08:10:50.933</time></trkpt><trkpt lat="56.8308162" lon="53.1485781"><time>2024-11-14T08:10:53</time></trkpt><trkpt lat="56.8307889" lon="53.1485072"><time>2024-11-14T08:10:57.020</time></trkpt><trkpt lat="56.8307842" lon="53.1484212"><time>2024-11-14T08:11:00.957</time></trkpt><trkpt lat="56.8307526" lon="53.1483586"><time>2024-11-14T08:11:15.940</time></trkpt><trkpt lat="56.8307059" lon="53.1482959"><time>2024-11-14T08:11:18</time></trkpt><trkpt lat="56.8306465" lon="53.1482490"><time>2024-11-14T08:11:19.943</time></trkpt><trkpt lat="56.8305819" lon="53.1482163"><time>2024-11-14T08:11:22.013</time></trkpt><trkpt lat="56.8305136" lon="53.1482039"><time>2024-11-14T08:11:23.993</time></trkpt><trkpt lat="56.8304479" lon="53.1481977"><time>2024-11-14T08:11:25.940</time></trkpt><trkpt lat="56.8303853" lon="53.1481801"><time>2024-11-14T08:11:28.010</time></trkpt><trkpt lat="56.8303161" lon="53.1481843"><time>2024-11-14T08:11:29.947</time></trkpt><trkpt lat="56.8302473" lon="53.1481912"><time>2024-11-14T08:11:32.027</time></trkpt><trkpt lat="56.8301818" lon="53.1481964"><time>2024-11-14T08:11:34.017</time></trkpt><trkpt lat="56.8301046" lon="53.1482061"><time>2024-11-14T08:11:36</time></trkpt><trkpt lat="56.8300098" lon="53.1482125"><time>2024-11-14T08:11:37.223</time></trkpt><trkpt lat="56.8299522" lon="53.1483106"><time>2024-11-14T08:11:39.007</time></trkpt><trkpt lat="56.8299016" lon="53.1482025"><time>2024-11-14T08:11:39.943</time></trkpt><trkpt lat="56.8298592" lon="53.1481451"><time>2024-11-14T08:11:40.943</time></trkpt><trkpt lat="56.8297975" lon="53.1481264"><time>2024-11-14T08:11:43.083</time></trkpt><trkpt lat="56.8297335" lon="53.1481213"><time>2024-11-14T08:11:44.943</time></trkpt><trkpt lat="56.8296576" lon="53.1481309"><time>2024-11-14T08:11:46.943</time></trkpt><trkpt lat="56.8295756" lon="53.1481666"><time>2024-11-14T08:11:48.943</time></trkpt><trkpt lat="56.8294920" lon="53.1481984"><time>2024-11-14T08:11:50.943</time></trkpt><trkpt lat="56.8294470" lon="53.1482137"><time>2024-11-14T08:11:51.937</time></trkpt><trkpt lat="56.8293590" lon="53.1482380"><time>2024-11-14T08:11:53.943</time></trkpt><trkpt lat="56.8293131" lon="53.1482476"><time>2024-11-14T08:11:54.943</time></trkpt><trkpt lat="56.8292266" lon="53.1482640"><time>2024-11-14T08:11:57.007</time></trkpt><trkpt lat="56.8291382" lon="53.1482558"><time>2024-11-14T08:11:58.073</time></trkpt><trkpt lat="56.8290901" lon="53.1482789"><time>2024-11-14T08:11:58.927</time></trkpt><trkpt lat="56.8290122" lon="53.1482963"><time>2024-11-14T08:12:00.957</time></trkpt><trkpt lat="56.8289480" lon="53.1482925"><time>2024-11-14T08:12:03.020</time></trkpt><trkpt lat="56.8288936" lon="53.1482989"><time>2024-11-14T08:12:04.943</time></trkpt><trkpt lat="56.8288313" lon="53.1483009"><time>2024-11-14T08:12:07.013</time></trkpt><trkpt lat="56.8287575" lon="53.1482971"><time>2024-11-14T08:12:09.077</time></trkpt><trkpt lat="56.8286889" lon="53.1482928"><time>2024-11-14T08:12:10.240</time></trkpt><trkpt lat="56.8286317" lon="53.1483102"><time>2024-11-14T08:12:14.053</time></trkpt><trkpt lat="56.8285813" lon="53.1483238"><time>2024-11-14T08:12:17.073</time></trkpt><trkpt lat="56.8285167" lon="53.1483235"><time>2024-11-14T08:12:20.057</time></trkpt><trkpt lat="56.8285167" lon="53.1483235"><time>2024-11-14T08:12:20.087</time></trkpt><trkpt lat="56.8284667" lon="53.1483243"><time>2024-11-14T08:12:21.953</time></trkpt><trkpt lat="56.8284789" lon="53.1483384"><time>2024-11-14T08:12:23.213</time></trkpt><trkpt lat="56.8284310" lon="53.1483305"><time>2024-11-14T08:12:27.017</time></trkpt><trkpt lat="56.8283961" lon="53.1482784"><time>2024-11-14T08:12:28.943</time></trkpt><trkpt lat="56.8283375" lon="53.1482324"><time>2024-11-14T08:12:31.937</time></trkpt><trkpt lat="56.8283002" lon="53.1483054"><time>2024-11-14T08:12:34.943</time></trkpt><trkpt lat="56.8283235" lon="53.1483969"><time>2024-11-14T08:12:39.007</time></trkpt><trkpt lat="56.8282799" lon="53.1484436"><time>2024-11-14T08:12:43.937</time></trkpt><trkpt lat="56.8282302" lon="53.1484152"><time>2024-11-14T08:12:46.973</time></trkpt><trkpt lat="56.8281589" lon="53.1483811"><time>2024-11-14T08:12:49.947</time></trkpt><trkpt lat="56.8280948" lon="53.1483622"><time>2024-11-14T08:12:51.940</time></trkpt><trkpt lat="56.8280315" lon="53.1483509"><time>2024-11-14T08:12:53.940</time></trkpt><trkpt lat="56.8279642" lon="53.1483264"><time>2024-11-14T08:12:55.943</time></trkpt><trkpt lat="56.8278975" lon="53.1483242"><time>2024-11-14T08:12:57.930</time></trkpt><trkpt lat="56.8278321" lon="53.1483277"><time>2024-11-14T08:12:59.947</time></trkpt><trkpt lat="56.8277605" lon="53.1483150"><time>2024-11-14T08:13:01.940</time></trkpt><trkpt lat="56.8276834" lon="53.1482603"><time>2024-11-14T08:13:03.973</time></trkpt><trkpt lat="56.8276455" lon="53.1481976"><time>2024-11-14T08:13:04.947</time></trkpt><trkpt lat="56.8276134" lon="53.1481282"><time>2024-11-14T08:13:05.937</time></trkpt><trkpt lat="56.8275758" lon="53.1480568"><time>2024-11-14T08:13:06.970</time></trkpt><trkpt lat="56.8275446" lon="53.1479751"><time>2024-11-14T08:13:07.997</time></trkpt><trkpt lat="56.8275150" lon="53.1478921"><time>2024-11-14T08:13:08.943</time></trkpt><trkpt lat="56.8274867" lon="53.1478167"><time>2024-11-14T08:13:10.027</time></trkpt><trkpt lat="56.8274608" lon="53.1477465"><time>2024-11-14T08:13:10.947</time></trkpt><trkpt lat="56.8274169" lon="53.1476069"><time>2024-11-14T08:13:12.943</time></trkpt><trkpt lat="56.8273751" lon="53.1474641"><time>2024-11-14T08:13:14.940</time></trkpt><trkpt lat="56.8273311" lon="53.1473189"><time>2024-11-14T08:13:17.027</time></trkpt><trkpt lat="56.8273046" lon="53.1472464"><time>2024-11-14T08:13:17.993</time></trkpt><trkpt lat="56.8272799" lon="53.1471776"><time>2024-11-14T08:13:19.013</time></trkpt><trkpt lat="56.8272478" lon="53.1470978"><time>2024-11-14T08:13:19.943</time></trkpt><trkpt lat="56.8272156" lon="53.1470172"><time>2024-11-14T08:13:20.943</time></trkpt><trkpt lat="56.8271927" lon="53.1469340"><time>2024-11-14T08:13:21.937</time></trkpt><trkpt lat="56.8271705" lon="53.1468546"><time>2024-11-14T08:13:22.940</time></trkpt><trkpt lat="56.8271477" lon="53.1467775"><time>2024-11-14T08:13:23.940</time></trkpt><trkpt lat="56.8271254" lon="53.1467026"><time>2024-11-14T08:13:24.940</time></trkpt><trkpt lat="56.8271045" lon="53.1466233"><time>2024-11-14T08:13:25.940</time></trkpt><trkpt lat="56.8270906" lon="53.1465430"><time>2024-11-14T08:13:26.933</time></trkpt><trkpt lat="56.8270760" lon="53.1464610"><time>2024-11-14T08:13:27.940</time></trkpt><trkpt lat="56.8270633" lon="53.1463768"><time>2024-11-14T08:13:28.933</time></trkpt><trkpt lat="56.8270551" lon="53.1462958"><time>2024-11-14T08:13:29.933</time></trkpt><trkpt lat="56.8270530" lon="53.1461475"><time>2024-11-14T08:13:31.933</time></trkpt><trkpt lat="56.8270447" lon="53.1460313"><time>2024-11-14T08:13:33.933</time></trkpt><trkpt lat="56.8270292" lon="53.1459509"><time>2024-11-14T08:13:34.940</time></trkpt><trkpt lat="56.8270053" lon="53.1458740"><time>2024-11-14T08:13:35.940</time></trkpt><trkpt lat="56.8269587" lon="53.1457503"><time>2024-11-14T08:13:37.933</time></trkpt><trkpt lat="56.8269297" lon="53.1456875"><time>2024-11-14T08:13:38.937</time></trkpt><trkpt lat="56.8268811" lon="53.1455546"><time>2024-11-14T08:13:40.933</time></trkpt><trkpt lat="56.8268625" lon="53.1454786"><time>2024-11-14T08:13:41.937</time></trkpt><trkpt lat="56.8268454" lon="53.1454021"><time>2024-11-14T08:13:42.943</time></trkpt><trkpt lat="56.8268100" lon="53.1452661"><time>2024-11-14T08:13:44.947</time></trkpt><trkpt lat="56.8267805" lon="53.1451563"><time>2024-11-14T08:13:46.943</time></trkpt><trkpt lat="56.8267694" lon="53.1450479"><time>2024-11-14T08:13:48.947</time></trkpt><trkpt lat="56.8267858" lon="53.1449162"><time>2024-11-14T08:13:50.940</time></trkpt><trkpt lat="56.8268064" lon="53.1447723"><time>2024-11-14T08:13:52.950</time></trkpt><trkpt lat="56.8268042" lon="53.1446272"><time>2024-11-14T08:13:54.943</time></trkpt><trkpt lat="56.8267879" lon="53.1444848"><time>2024-11-14T08:13:56.940</time></trkpt><trkpt lat="56.8267740" lon="53.1443459"><time>2024-11-14T08:13:58.937</time></trkpt><trkpt lat="56.8267714" lon="53.1442203"><time>2024-11-14T08:14:01.017</time></trkpt><trkpt lat="56.8267589" lon="53.1442511"><time>2024-11-14T08:14:02.077</time></trkpt><trkpt lat="56.8267982" lon="53.1441808"><time>2024-11-14T08:14:02.930</time></trkpt><trkpt lat="56.8267951" lon="53.1440601"><time>2024-11-14T08:14:04.937</time></trkpt><trkpt lat="56.8267868" lon="53.1439692"><time>2024-11-14T08:14:06.943</time></trkpt><trkpt lat="56.8267784" lon="53.1438729"><time>2024-11-14T08:14:08.937</time></trkpt><trkpt lat="56.8267684" lon="53.1437646"><time>2024-11-14T08:14:10.940</time></trkpt><trkpt lat="56.8267544" lon="53.1436378"><time>2024-11-14T08:14:12.937</time></trkpt><trkpt lat="56.8267436" lon="53.1434877"><time>2024-11-14T08:14:14.937</time></trkpt><trkpt lat="56.8267198" lon="53.1433424"><time>2024-11-14T08:14:16.937</time></trkpt><trkpt lat="56.8267021" lon="53.1431885"><time>2024-11-14T08:14:18.937</time></trkpt><trkpt lat="56.8266933" lon="53.1431051"><time>2024-11-14T08:14:19.940</time></trkpt><trkpt lat="56.8266836" lon="53.1430179"><time>2024-11-14T08:14:20.940</time></trkpt><trkpt lat="56.8266720" lon="53.1429294"><time>2024-11-14T08:14:21.943</time></trkpt><trkpt lat="56.8266593" lon="53.1428423"><time>2024-11-14T08:14:22.943</time></trkpt><trkpt lat="56.8266427" lon="53.1427238"><time>2024-11-14T08:14:24.940</time></trkpt><trkpt lat="56.8266223" lon="53.1426331"><time>2024-11-14T08:14:28.940</time></trkpt><trkpt lat="56.8266108" lon="53.1425382"><time>2024-11-14T08:14:32.943</time></trkpt><trkpt lat="56.8266104" lon="53.1424536"><time>2024-11-14T08:14:35.937</time></trkpt><trkpt lat="56.8266558" lon="53.1423978"><time>2024-11-14T08:14:38.933</time></trkpt><trkpt lat="56.8267297" lon="53.1423973"><time>2024-11-14T08:14:40.937</time></trkpt><trkpt lat="56.8268107" lon="53.1424234"><time>2024-11-14T08:14:42.943</time></trkpt><trkpt lat="56.8268935" lon="53.1424513"><time>2024-11-14T08:14:44.940</time></trkpt><trkpt lat="56.8269739" lon="53.1424605"><time>2024-11-14T08:14:46.960</time></trkpt><trkpt lat="56.8270130" lon="53.1424423"><time>2024-11-14T08:14:48.047</time></trkpt><trkpt lat="56.8270445" lon="53.1423271"><time>2024-11-14T08:14:49.940</time></trkpt><trkpt lat="56.8270698" lon="53.1422240"><time>2024-11-14T08:14:51.943</time></trkpt><trkpt lat="56.8270752" lon="53.1421321"><time>2024-11-14T08:14:53.943</time></trkpt><trkpt lat="56.8270715" lon="53.1420346"><time>2024-11-14T08:14:55.937</time></trkpt><trkpt lat="56.8270709" lon="53.1419351"><time>2024-11-14T08:14:57.933</time></trkpt><trkpt lat="56.8270993" lon="53.1418633"><time>2024-11-14T08:14:59.933</time></trkpt><trkpt lat="56.8271561" lon="53.1418652"><time>2024-11-14T08:15:01.933</time></trkpt><trkpt lat="56.8272110" lon="53.1418612"><time>2024-11-14T08:15:03.943</time></trkpt><trkpt lat="56.8272650" lon="53.1418472"><time>2024-11-14T08:15:05.940</time></trkpt><trkpt lat="56.8273327" lon="53.1418520"><time>2024-11-14T08:15:07.957</time></trkpt><trkpt lat="56.8274206" lon="53.1418337"><time>2024-11-14T08:15:09.050</time></trkpt><trkpt lat="56.8274498" lon="53.1417436"><time>2024-11-14T08:15:12.933</time></trkpt><trkpt lat="56.8274681" lon="53.1416657"><time>2024-11-14T08:15:14.933</time></trkpt><trkpt lat="56.8274893" lon="53.1415635"><time>2024-11-14T08:15:17.930</time></trkpt><trkpt lat="56.8275174" lon="53.1414569"><time>2024-11-14T08:15:20.947</time></trkpt><trkpt lat="56.8275174" lon="53.1414569"><time>2024-11-14T08:15:20.987</time></trkpt><trkpt lat="56.8275271" lon="53.1413707"><time>2024-11-14T08:15:22.957</time></trkpt><trkpt lat="56.8275114" lon="53.1414002"><time>2024-11-14T08:15:24.023</time></trkpt><trkpt lat="56.8275630" lon="53.1413852"><time>2024-11-14T08:15:29.943</time></trkpt><trkpt lat="56.8275876" lon="53.1414733"><time>2024-11-14T08:15:34.943</time></trkpt><trkpt lat="56.8275489" lon="53.1415340"><time>2024-11-14T08:15:39.940</time></trkpt><trkpt lat="56.8275092" lon="53.1414790"><time>2024-11-14T08:15:44.940</time></trkpt><trkpt lat="56.8274813" lon="53.1415620"><time>2024-11-14T08:15:56.937</time></trkpt><trkpt lat="56.8274223" lon="53.1416092"><time>2024-11-14T08:15:59.940</time></trkpt><trkpt lat="56.8273750" lon="53.1416393"><time>2024-11-14T08:16:01.940</time></trkpt><trkpt lat="56.8273155" lon="53.1416612"><time>2024-11-14T08:16:03.943</time></trkpt><trkpt lat="56.8272510" lon="53.1417003"><time>2024-11-14T08:16:05.943</time></trkpt><trkpt lat="56.8272079" lon="53.1417875"><time>2024-11-14T08:16:07.943</time></trkpt><trkpt lat="56.8271991" lon="53.1418965"><time>2024-11-14T08:16:09.940</time></trkpt><trkpt lat="56.8272001" lon="53.1420123"><time>2024-11-14T08:16:11.943</time></trkpt><trkpt lat="56.8271894" lon="53.1421279"><time>2024-11-14T08:16:14.010</time></trkpt><trkpt lat="56.8271583" lon="53.1422452"><time>2024-11-14T08:16:15.980</time></trkpt><trkpt lat="56.8271059" lon="53.1423314"><time>2024-11-14T08:16:17.943</time></trkpt><trkpt lat="56.8270342" lon="53.1423802"><time>2024-11-14T08:16:19.940</time></trkpt><trkpt lat="56.8269559" lon="53.1424041"><time>2024-11-14T08:16:21.980</time></trkpt><trkpt lat="56.8268783" lon="53.1424243"><time>2024-11-14T08:16:23.947</time></trkpt><trkpt lat="56.8268016" lon="53.1424467"><time>2024-11-14T08:16:25.947</time></trkpt><trkpt lat="56.8267288" lon="53.1424660"><time>2024-11-14T08:16:27.933</time></trkpt><trkpt lat="56.8266640" lon="53.1424921"><time>2024-11-14T08:16:29.943</time></trkpt><trkpt lat="56.8265971" lon="53.1424931"><time>2024-11-14T08:16:31.933</time></trkpt><trkpt lat="56.8265260" lon="53.1425008"><time>2024-11-14T08:16:33.940</time></trkpt><trkpt lat="56.8264662" lon="53.1425360"><time>2024-11-14T08:16:35.930</time></trkpt><trkpt lat="56.8264119" lon="53.1425653"><time>2024-11-14T08:16:37.937</time></trkpt><trkpt lat="56.8263401" lon="53.1425377"><time>2024-11-14T08:16:40.947</time></trkpt><trkpt lat="56.8262657" lon="53.1425047"><time>2024-11-14T08:16:42.943</time></trkpt><trkpt lat="56.8261887" lon="53.1424854"><time>2024-11-14T08:16:44.927</time></trkpt><trkpt lat="56.8261126" lon="53.1424621"><time>2024-11-14T08:16:46.940</time></trkpt><trkpt lat="56.8260410" lon="53.1424335"><time>2024-11-14T08:16:48.940</time></trkpt><trkpt lat="56.8259690" lon="53.1424063"><time>2024-11-14T08:16:50.947</time></trkpt><trkpt lat="56.8258989" lon="53.1423895"><time>2024-11-14T08:16:52.940</time></trkpt><trkpt lat="56.8258410" lon="53.1423613"><time>2024-11-14T08:16:54.943</time></trkpt><trkpt lat="56.8258050" lon="53.1422825"><time>2024-11-14T08:16:57.943</time></trkpt><trkpt lat="56.8257996" lon="53.1421919"><time>2024-11-14T08:16:59.937</time></trkpt><trkpt lat="56.8257706" lon="53.1420691"><time>2024-11-14T08:17:01.937</time></trkpt><trkpt lat="56.8257208" lon="53.1419348"><time>2024-11-14T08:17:03.947</time></trkpt><trkpt lat="56.8256764" lon="53.1418024"><time>2024-11-14T08:17:05.930</time></trkpt><trkpt lat="56.8256612" lon="53.1417124"><time>2024-11-14T08:17:07.943</time></trkpt><trkpt lat="56.8256531" lon="53.1416249"><time>2024-11-14T08:17:09.937</time></trkpt><trkpt lat="56.8256525" lon="53.1415254"><time>2024-11-14T08:17:11.930</time></trkpt><trkpt lat="56.8256621" lon="53.1414381"><time>2024-11-14T08:17:13.933</time></trkpt><trkpt lat="56.8256907" lon="53.1413622"><time>2024-11-14T08:17:15.943</time></trkpt><trkpt lat="56.8257118" lon="53.1412875"><time>2024-11-14T08:17:17.933</time></trkpt><trkpt lat="56.8257151" lon="53.1412050"><time>2024-11-14T08:17:21.937</time></trkpt><trkpt lat="56.8257061" lon="53.1411211"><time>2024-11-14T08:17:27.940</time></trkpt><trkpt lat="56.8256760" lon="53.1410525"><time>2024-11-14T08:17:30.940</time></trkpt><trkpt lat="56.8256359" lon="53.1410098"><time>2024-11-14T08:17:32.930</time></trkpt><trkpt lat="56.8255579" lon="53.1409593"><time>2024-11-14T08:17:34.933</time></trkpt><trkpt lat="56.8254782" lon="53.1409108"><time>2024-11-14T08:17:36.943</time></trkpt><trkpt lat="56.8254032" lon="53.1408673"><time>2024-11-14T08:17:38.937</time></trkpt><trkpt lat="56.8253291" lon="53.1408079"><time>2024-11-14T08:17:40.937</time></trkpt><trkpt lat="56.8252573" lon="53.1407615"><time>2024-11-14T08:17:42.940</time></trkpt><trkpt lat="56.8251873" lon="53.1407313"><time>2024-11-14T08:17:44.940</time></trkpt><trkpt lat="56.8251144" lon="53.1407145"><time>2024-11-14T08:17:46.940</time></trkpt><trkpt lat="56.8250437" lon="53.1406725"><time>2024-11-14T08:17:48.940</time></trkpt><trkpt lat="56.8249797" lon="53.1406396"><time>2024-11-14T08:17:50.937</time></trkpt><trkpt lat="56.8249164" lon="53.1406340"><time>2024-11-14T08:17:52.957</time></trkpt><trkpt lat="56.8249476" lon="53.1406450"><time>2024-11-14T08:17:54.027</time></trkpt><trkpt lat="56.8248878" lon="53.1406216"><time>2024-11-14T08:17:56.937</time></trkpt><trkpt lat="56.8248407" lon="53.1405974"><time>2024-11-14T08:17:57.937</time></trkpt><trkpt lat="56.8247880" lon="53.1405651"><time>2024-11-14T08:17:58.937</time></trkpt><trkpt lat="56.8247163" lon="53.1405307"><time>2024-11-14T08:18:00.937</time></trkpt><trkpt lat="56.8246526" lon="53.1405002"><time>2024-11-14T08:18:02.937</time></trkpt><trkpt lat="56.8245852" lon="53.1404901"><time>2024-11-14T08:18:04.940</time></trkpt><trkpt lat="56.8245116" lon="53.1404971"><time>2024-11-14T08:18:06.937</time></trkpt><trkpt lat="56.8244306" lon="53.1404927"><time>2024-11-14T08:18:08.937</time></trkpt><trkpt lat="56.8243536" lon="53.1404957"><time>2024-11-14T08:18:10.943</time></trkpt><trkpt lat="56.8242691" lon="53.1404884"><time>2024-11-14T08:18:12.940</time></trkpt><trkpt lat="56.8241879" lon="53.1404665"><time>2024-11-14T08:18:14.947</time></trkpt><trkpt lat="56.8241415" lon="53.1404593"><time>2024-11-14T08:18:15.950</time></trkpt><trkpt lat="56.8240554" lon="53.1404546"><time>2024-11-14T08:18:17.973</time></trkpt><trkpt lat="56.8239718" lon="53.1404580"><time>2024-11-14T08:18:19.970</time></trkpt><trkpt lat="56.8238935" lon="53.1404468"><time>2024-11-14T08:18:21.947</time></trkpt><trkpt lat="56.8239227" lon="53.1404510"><time>2024-11-14T08:18:23.133</time></trkpt><trkpt lat="56.8238683" lon="53.1404241"><time>2024-11-14T08:18:24.967</time></trkpt><trkpt lat="56.8238240" lon="53.1403993"><time>2024-11-14T08:18:25.973</time></trkpt><trkpt lat="56.8237748" lon="53.1403833"><time>2024-11-14T08:18:26.967</time></trkpt><trkpt lat="56.8237137" lon="53.1403484"><time>2024-11-14T08:18:28.937</time></trkpt><trkpt lat="56.8236504" lon="53.1403277"><time>2024-11-14T08:18:30.940</time></trkpt><trkpt lat="56.8235817" lon="53.1403015"><time>2024-11-14T08:18:32.940</time></trkpt><trkpt lat="56.8235101" lon="53.1402793"><time>2024-11-14T08:18:34.940</time></trkpt><trkpt lat="56.8234327" lon="53.1402857"><time>2024-11-14T08:18:36.970</time></trkpt><trkpt lat="56.8233591" lon="53.1403013"><time>2024-11-14T08:18:38.937</time></trkpt><trkpt lat="56.8233068" lon="53.1403307"><time>2024-11-14T08:18:40.937</time></trkpt><trkpt lat="56.8232744" lon="53.1403963"><time>2024-11-14T08:18:44.943</time></trkpt><trkpt lat="56.8232244" lon="53.1403732"><time>2024-11-14T08:18:47.953</time></trkpt><trkpt lat="56.8231652" lon="53.1403428"><time>2024-11-14T08:18:50.003</time></trkpt><trkpt lat="56.8231031" lon="53.1403454"><time>2024-11-14T08:18:52</time></trkpt><trkpt lat="56.8230457" lon="53.1403438"><time>2024-11-14T08:18:53.997</time></trkpt><trkpt lat="56.8229970" lon="53.1403541"><time>2024-11-14T08:18:55.927</time></trkpt><trkpt lat="56.8229496" lon="53.1403543"><time>2024-11-14T08:18:59.963</time></trkpt><trkpt lat="56.8229359" lon="53.1402531"><time>2024-11-14T08:19:04.973</time></trkpt><trkpt lat="56.8229320" lon="53.1401633"><time>2024-11-14T08:19:08.017</time></trkpt><trkpt lat="56.8228865" lon="53.1401662"><time>2024-11-14T08:19:10.937</time></trkpt><trkpt lat="56.8228439" lon="53.1401927"><time>2024-11-14T08:19:14.930</time></trkpt><trkpt lat="56.8228003" lon="53.1402139"><time>2024-11-14T08:19:18.937</time></trkpt><trkpt lat="56.8227491" lon="53.1402224"><time>2024-11-14T08:19:23.943</time></trkpt><trkpt lat="56.8226987" lon="53.1402049"><time>2024-11-14T08:19:28.953</time></trkpt><trkpt lat="56.8226541" lon="53.1402178"><time>2024-11-14T08:19:33.033</time></trkpt><trkpt lat="56.8226981" lon="53.1402011"><time>2024-11-14T08:19:40.973</time></trkpt><trkpt lat="56.8227429" lon="53.1402143"><time>2024-11-14T08:19:57.943</time></trkpt><trkpt lat="56.8226932" lon="53.1402223"><time>2024-11-14T08:20:05.940</time></trkpt><trkpt lat="56.8227603" lon="53.1402125"><time>2024-11-14T08:20:27.943</time></trkpt><trkpt lat="56.8228190" lon="53.1402381"><time>2024-11-14T08:20:30.947</time></trkpt><trkpt lat="56.8228765" lon="53.1402375"><time>2024-11-14T08:20:33.943</time></trkpt><trkpt lat="56.8229434" lon="53.1402223"><time>2024-11-14T08:20:36.953</time></trkpt><trkpt lat="56.8229957" lon="53.1402439"><time>2024-11-14T08:20:39.983</time></trkpt><trkpt lat="56.8230471" lon="53.1402876"><time>2024-11-14T08:20:44.047</time></trkpt><trkpt lat="56.8231003" lon="53.1402834"><time>2024-11-14T08:20:47.940</time></trkpt><trkpt lat="56.8231472" lon="53.1403128"><time>2024-11-14T08:20:50.943</time></trkpt><trkpt lat="56.8231889" lon="53.1403569"><time>2024-11-14T08:20:53.937</time></trkpt><trkpt lat="56.8232310" lon="53.1404237"><time>2024-11-14T08:20:57.950</time></trkpt><trkpt lat="56.8232456" lon="53.1403285"><time>2024-11-14T08:21:02.940</time></trkpt><trkpt lat="56.8232778" lon="53.1402623"><time>2024-11-14T08:21:06.940</time></trkpt><trkpt lat="56.8233013" lon="53.1401756"><time>2024-11-14T08:21:10.943</time></trkpt><trkpt lat="56.8233026" lon="53.1400690"><time>2024-11-14T08:21:15.007</time></trkpt><trkpt lat="56.8232848" lon="53.1401500"><time>2024-11-14T08:21:16.083</time></trkpt><trkpt lat="56.8232848" lon="53.1401499"><time>2024-11-14T08:21:17.233</time></trkpt><trkpt lat="56.8232666" lon="53.1400562"><time>2024-11-14T08:21:52.947</time></trkpt><trkpt lat="56.8232666" lon="53.1400562"><time>2024-11-14T08:21:54.070</time></trkpt><trkpt lat="56.8233035" lon="53.1401071"><time>2024-11-14T08:22:00.967</time></trkpt><trkpt lat="56.8233456" lon="53.1401903"><time>2024-11-14T08:22:03.943</time></trkpt><trkpt lat="56.8233708" lon="53.1400387"><time>2024-11-14T08:22:05.013</time></trkpt><trkpt lat="56.8233909" lon="53.1400687"><time>2024-11-14T08:22:06.073</time></trkpt><trkpt lat="56.8234255" lon="53.1401661"><time>2024-11-14T08:22:08.013</time></trkpt><trkpt lat="56.8234350" lon="53.1401722"><time>2024-11-14T08:22:09.090</time></trkpt><trkpt lat="56.8234456" lon="53.1402705"><time>2024-11-14T08:22:10.940</time></trkpt><trkpt lat="56.8234807" lon="53.1403240"><time>2024-11-14T08:22:13.947</time></trkpt><trkpt lat="56.8234658" lon="53.1404221"><time>2024-11-14T08:22:16.947</time></trkpt><trkpt lat="56.8235093" lon="53.1403737"><time>2024-11-14T08:22:29.947</time></trkpt><trkpt lat="56.8234526" lon="53.1403865"><time>2024-11-14T08:22:39.943</time></trkpt><trkpt lat="56.8233982" lon="53.1404125"><time>2024-11-14T08:22:41.947</time></trkpt><trkpt lat="56.8233355" lon="53.1404203"><time>2024-11-14T08:22:43.947</time></trkpt><trkpt lat="56.8232651" lon="53.1403863"><time>2024-11-14T08:22:45.947</time></trkpt><trkpt lat="56.8231970" lon="53.1403463"><time>2024-11-14T08:22:47.943</time></trkpt><trkpt lat="56.8231306" lon="53.1403052"><time>2024-11-14T08:22:49.947</time></trkpt><trkpt lat="56.8230589" lon="53.1402737"><time>2024-11-14T08:22:51.947</time></trkpt><trkpt lat="56.8229838" lon="53.1402540"><time>2024-11-14T08:22:53.980</time></trkpt><trkpt lat="56.8229085" lon="53.1402608"><time>2024-11-14T08:22:55.977</time></trkpt><trkpt lat="56.8228333" lon="53.1402897"><time>2024-11-14T08:22:57.977</time></trkpt><trkpt lat="56.8227526" lon="53.1403041"><time>2024-11-14T08:22:59.987</time></trkpt><trkpt lat="56.8226695" lon="53.1402698"><time>2024-11-14T08:23:01.943</time></trkpt><trkpt lat="56.8226265" lon="53.1402456"><time>2024-11-14T08:23:02.943</time></trkpt><trkpt lat="56.8225545" lon="53.1402198"><time>2024-11-14T08:23:04.953</time></trkpt><trkpt lat="56.8226289" lon="53.1401806"><time>2024-11-14T08:23:06.050</time></trkpt><trkpt lat="56.8226104" lon="53.1401963"><time>2024-11-14T08:23:07.127</time></trkpt><trkpt lat="56.8225241" lon="53.1402156"><time>2024-11-14T08:23:10.960</time></trkpt><trkpt lat="56.8225209" lon="53.1402269"><time>2024-11-14T08:23:12.057</time></trkpt><trkpt lat="56.8224817" lon="53.1402884"><time>2024-11-14T08:23:13.940</time></trkpt><trkpt lat="56.8224359" lon="53.1403011"><time>2024-11-14T08:23:14.943</time></trkpt><trkpt lat="56.8223843" lon="53.1403192"><time>2024-11-14T08:23:16.947</time></trkpt><trkpt lat="56.8223314" lon="53.1403571"><time>2024-11-14T08:23:19.947</time></trkpt><trkpt lat="56.8222719" lon="53.1403364"><time>2024-11-14T08:23:23.947</time></trkpt><trkpt lat="56.8221984" lon="53.1403370"><time>2024-11-14T08:23:26.943</time></trkpt><trkpt lat="56.8221306" lon="53.1403615"><time>2024-11-14T08:23:28.947</time></trkpt><trkpt lat="56.8220525" lon="53.1403962"><time>2024-11-14T08:23:30.977</time></trkpt><trkpt lat="56.8219688" lon="53.1404249"><time>2024-11-14T08:23:32.937</time></trkpt><trkpt lat="56.8218862" lon="53.1404654"><time>2024-11-14T08:23:34.947</time></trkpt><trkpt lat="56.8218103" lon="53.1405105"><time>2024-11-14T08:23:36.943</time></trkpt><trkpt lat="56.8217278" lon="53.1405633"><time>2024-11-14T08:23:38.947</time></trkpt><trkpt lat="56.8216438" lon="53.1405768"><time>2024-11-14T08:23:40.937</time></trkpt><trkpt lat="56.8215804" lon="53.1405651"><time>2024-11-14T08:23:42.997</time></trkpt><trkpt lat="56.8215328" lon="53.1405770"><time>2024-11-14T08:23:44.943</time></trkpt><trkpt lat="56.8214813" lon="53.1406017"><time>2024-11-14T08:23:47.973</time></trkpt><trkpt lat="56.8214307" lon="53.1405971"><time>2024-11-14T08:23:51.940</time></trkpt><trkpt lat="56.8213884" lon="53.1406403"><time>2024-11-14T08:23:55.943</time></trkpt><trkpt lat="56.8213403" lon="53.1405910"><time>2024-11-14T08:23:58.943</time></trkpt><trkpt lat="56.8212920" lon="53.1406020"><time>2024-11-14T08:24:00.957</time></trkpt><trkpt lat="56.8212399" lon="53.1406205"><time>2024-11-14T08:24:02.983</time></trkpt><trkpt lat="56.8211816" lon="53.1406357"><time>2024-11-14T08:24:04.930</time></trkpt><trkpt lat="56.8211244" lon="53.1406614"><time>2024-11-14T08:24:06.947</time></trkpt><trkpt lat="56.8210574" lon="53.1406496"><time>2024-11-14T08:24:08.997</time></trkpt><trkpt lat="56.8211215" lon="53.1405661"><time>2024-11-14T08:24:10.073</time></trkpt><trkpt lat="56.8210725" lon="53.1406128"><time>2024-11-14T08:24:11.943</time></trkpt><trkpt lat="56.8209913" lon="53.1405896"><time>2024-11-14T08:24:13.950</time></trkpt><trkpt lat="56.8209228" lon="53.1405016"><time>2024-11-14T08:24:15.947</time></trkpt><trkpt lat="56.8208658" lon="53.1404711"><time>2024-11-14T08:24:18.010</time></trkpt><trkpt lat="56.8208131" lon="53.1404591"><time>2024-11-14T08:24:19.943</time></trkpt><trkpt lat="56.8207573" lon="53.1404412"><time>2024-11-14T08:24:22.937</time></trkpt><trkpt lat="56.8206882" lon="53.1404431"><time>2024-11-14T08:24:25.943</time></trkpt><trkpt lat="56.8206189" lon="53.1404317"><time>2024-11-14T08:24:27.937</time></trkpt><trkpt lat="56.8205561" lon="53.1403826"><time>2024-11-14T08:24:29.943</time></trkpt><trkpt lat="56.8204975" lon="53.1403357"><time>2024-11-14T08:24:32.010</time></trkpt><trkpt lat="56.8205331" lon="53.1403272"><time>2024-11-14T08:24:33.083</time></trkpt><trkpt lat="56.8204914" lon="53.1402880"><time>2024-11-14T08:24:36.940</time></trkpt><trkpt lat="56.8204813" lon="53.1401976"><time>2024-11-14T08:24:43.087</time></trkpt><trkpt lat="56.8204621" lon="53.1401130"><time>2024-11-14T08:24:45.943</time></trkpt><trkpt lat="56.8204635" lon="53.1400230"><time>2024-11-14T08:24:47.940</time></trkpt><trkpt lat="56.8204758" lon="53.1399404"><time>2024-11-14T08:24:49.943</time></trkpt><trkpt lat="56.8204751" lon="53.1398513"><time>2024-11-14T08:24:51.997</time></trkpt><trkpt lat="56.8204751" lon="53.1398513"><time>2024-11-14T08:24:52.027</time></trkpt><trkpt lat="56.8204637" lon="53.1397574"><time>2024-11-14T08:24:54.007</time></trkpt><trkpt lat="56.8204346" lon="53.1398054"><time>2024-11-14T08:24:55.087</time></trkpt><trkpt lat="56.8204138" lon="53.1396800"><time>2024-11-14T08:24:57.937</time></trkpt><trkpt lat="56.8204116" lon="53.1395708"><time>2024-11-14T08:24:59.937</time></trkpt><trkpt lat="56.8204200" lon="53.1394786"><time>2024-11-14T08:25:01.940</time></trkpt><trkpt lat="56.8204081" lon="53.1393964"><time>2024-11-14T08:25:12.940</time></trkpt><trkpt lat="56.8203975" lon="53.1393105"><time>2024-11-14T08:25:15.940</time></trkpt><trkpt lat="56.8204041" lon="53.1392080"><time>2024-11-14T08:25:18.937</time></trkpt><trkpt lat="56.8204269" lon="53.1391279"><time>2024-11-14T08:25:21.940</time></trkpt><trkpt lat="56.8204239" lon="53.1390279"><time>2024-11-14T08:25:25.940</time></trkpt><trkpt lat="56.8203933" lon="53.1389527"><time>2024-11-14T08:25:29.940</time></trkpt><trkpt lat="56.8204027" lon="53.1388553"><time>2024-11-14T08:25:33.940</time></trkpt><trkpt lat="56.8204074" lon="53.1387252"><time>2024-11-14T08:25:36.943</time></trkpt><trkpt lat="56.8204024" lon="53.1386301"><time>2024-11-14T08:25:38.940</time></trkpt><trkpt lat="56.8204039" lon="53.1385416"><time>2024-11-14T08:25:40.943</time></trkpt><trkpt lat="56.8204068" lon="53.1384398"><time>2024-11-14T08:25:43.943</time></trkpt><trkpt lat="56.8204114" lon="53.1383465"><time>2024-11-14T08:25:48.940</time></trkpt><trkpt lat="56.8204354" lon="53.1382656"><time>2024-11-14T08:25:53.937</time></trkpt><trkpt lat="56.8204611" lon="53.1381977"><time>2024-11-14T08:25:57.940</time></trkpt><trkpt lat="56.8204843" lon="53.1381120"><time>2024-11-14T08:26:01.940</time></trkpt><trkpt lat="56.8204949" lon="53.1380178"><time>2024-11-14T08:26:04.943</time></trkpt><trkpt lat="56.8205097" lon="53.1379357"><time>2024-11-14T08:26:07.940</time></trkpt><trkpt lat="56.8205034" lon="53.1378297"><time>2024-11-14T08:26:11.940</time></trkpt><trkpt lat="56.8204957" lon="53.1377442"><time>2024-11-14T08:26:14.940</time></trkpt><trkpt lat="56.8205061" lon="53.1376609"><time>2024-11-14T08:26:17.937</time></trkpt><trkpt lat="56.8204874" lon="53.1375638"><time>2024-11-14T08:26:20.943</time></trkpt><trkpt lat="56.8204746" lon="53.1374715"><time>2024-11-14T08:26:22.940</time></trkpt><trkpt lat="56.8204805" lon="53.1373750"><time>2024-11-14T08:26:24.940</time></trkpt><trkpt lat="56.8204775" lon="53.1372676"><time>2024-11-14T08:26:26.937</time></trkpt><trkpt lat="56.8204831" lon="53.1371599"><time>2024-11-14T08:26:28.940</time></trkpt><trkpt lat="56.8204859" lon="53.1370530"><time>2024-11-14T08:26:30.943</time></trkpt><trkpt lat="56.8204894" lon="53.1369490"><time>2024-11-14T08:26:32.940</time></trkpt><trkpt lat="56.8205009" lon="53.1368373"><time>2024-11-14T08:26:34.943</time></trkpt><trkpt lat="56.8204926" lon="53.1367155"><time>2024-11-14T08:26:36.937</time></trkpt><trkpt lat="56.8204901" lon="53.1365924"><time>2024-11-14T08:26:38.940</time></trkpt><trkpt lat="56.8205155" lon="53.1364691"><time>2024-11-14T08:26:40.943</time></trkpt><trkpt lat="56.8205450" lon="53.1363600"><time>2024-11-14T08:26:42.940</time></trkpt><trkpt lat="56.8205685" lon="53.1362502"><time>2024-11-14T08:26:44.943</time></trkpt><trkpt lat="56.8205894" lon="53.1361417"><time>2024-11-14T08:26:47.003</time></trkpt><trkpt lat="56.8205928" lon="53.1361141"><time>2024-11-14T08:26:48.067</time></trkpt><trkpt lat="56.8206101" lon="53.1360290"><time>2024-11-14T08:26:49.937</time></trkpt><trkpt lat="56.8206290" lon="53.1359173"><time>2024-11-14T08:26:52.943</time></trkpt><trkpt lat="56.8206437" lon="53.1358361"><time>2024-11-14T08:26:54.953</time></trkpt><trkpt lat="56.8206811" lon="53.1357478"><time>2024-11-14T08:26:56.937</time></trkpt><trkpt lat="56.8207436" lon="53.1356634"><time>2024-11-14T08:26:58.940</time></trkpt><trkpt lat="56.8208036" lon="53.1355716"><time>2024-11-14T08:27:00.940</time></trkpt><trkpt lat="56.8208588" lon="53.1354800"><time>2024-11-14T08:27:02.937</time></trkpt><trkpt lat="56.8209132" lon="53.1354064"><time>2024-11-14T08:27:04.940</time></trkpt><trkpt lat="56.8209535" lon="53.1353330"><time>2024-11-14T08:27:07.027</time></trkpt><trkpt lat="56.8209847" lon="53.1352661"><time>2024-11-14T08:27:09.030</time></trkpt><trkpt lat="56.8210133" lon="53.1351996"><time>2024-11-14T08:27:10.943</time></trkpt><trkpt lat="56.8210442" lon="53.1351317"><time>2024-11-14T08:27:13.017</time></trkpt><trkpt lat="56.8210741" lon="53.1350695"><time>2024-11-14T08:27:14.943</time></trkpt><trkpt lat="56.8211073" lon="53.1350073"><time>2024-11-14T08:27:17.043</time></trkpt><trkpt lat="56.8211382" lon="53.1349094"><time>2024-11-14T08:27:19.943</time></trkpt><trkpt lat="56.8211643" lon="53.1348104"><time>2024-11-14T08:27:22.943</time></trkpt><trkpt lat="56.8212032" lon="53.1347345"><time>2024-11-14T08:27:25.940</time></trkpt><trkpt lat="56.8212290" lon="53.1346474"><time>2024-11-14T08:27:28.940</time></trkpt><trkpt lat="56.8212695" lon="53.1345691"><time>2024-11-14T08:27:31.937</time></trkpt><trkpt lat="56.8213243" lon="53.1345207"><time>2024-11-14T08:27:34.960</time></trkpt><trkpt lat="56.8212403" lon="53.1346793"><time>2024-11-14T08:27:36.053</time></trkpt><trkpt lat="56.8212410" lon="53.1346791"><time>2024-11-14T08:27:37.140</time></trkpt><trkpt lat="56.8213153" lon="53.1346603"><time>2024-11-14T08:27:50.967</time></trkpt><trkpt lat="56.8213635" lon="53.1347214"><time>2024-11-14T08:27:52.943</time></trkpt><trkpt lat="56.8214166" lon="53.1347527"><time>2024-11-14T08:27:53.943</time></trkpt><trkpt lat="56.8214707" lon="53.1347426"><time>2024-11-14T08:27:55.947</time></trkpt><trkpt lat="56.8215229" lon="53.1347394"><time>2024-11-14T08:27:57.943</time></trkpt><trkpt lat="56.8215713" lon="53.1347540"><time>2024-11-14T08:27:59.943</time></trkpt><trkpt lat="56.8216172" lon="53.1347504"><time>2024-11-14T08:28:01.943</time></trkpt><trkpt lat="56.8216710" lon="53.1346935"><time>2024-11-14T08:28:04.943</time></trkpt><trkpt lat="56.8217216" lon="53.1347275"><time>2024-11-14T08:28:07.937</time></trkpt><trkpt lat="56.8217766" lon="53.1347405"><time>2024-11-14T08:28:11.020</time></trkpt><trkpt lat="56.8216860" lon="53.1347557"><time>2024-11-14T08:28:12.957</time></trkpt><trkpt lat="56.8216860" lon="53.1347578"><time>2024-11-14T08:28:14.017</time></trkpt><trkpt lat="56.8217291" lon="53.1347328"><time>2024-11-14T08:28:23.940</time></trkpt><trkpt lat="56.8217949" lon="53.1347198"><time>2024-11-14T08:28:28.997</time></trkpt><trkpt lat="56.8218027" lon="53.1347187"><time>2024-11-14T08:28:30.080</time></trkpt><trkpt lat="56.8218620" lon="53.1347003"><time>2024-11-14T08:28:31.940</time></trkpt><trkpt lat="56.8219102" lon="53.1346692"><time>2024-11-14T08:28:36.943</time></trkpt><trkpt lat="56.8219523" lon="53.1346381"><time>2024-11-14T08:28:40.937</time></trkpt><trkpt lat="56.8220136" lon="53.1346133"><time>2024-11-14T08:28:43.940</time></trkpt><trkpt lat="56.8220299" lon="53.1345085"><time>2024-11-14T08:28:49.947</time></trkpt><trkpt lat="56.8220452" lon="53.1344298"><time>2024-11-14T08:28:51.947</time></trkpt><trkpt lat="56.8220570" lon="53.1343298"><time>2024-11-14T08:28:53.940</time></trkpt><trkpt lat="56.8220725" lon="53.1342274"><time>2024-11-14T08:28:55.940</time></trkpt><trkpt lat="56.8220964" lon="53.1341485"><time>2024-11-14T08:28:57.960</time></trkpt><trkpt lat="56.8221430" lon="53.1341128"><time>2024-11-14T08:28:59.940</time></trkpt><trkpt lat="56.8221955" lon="53.1340603"><time>2024-11-14T08:29:02.943</time></trkpt><trkpt lat="56.8222369" lon="53.1339906"><time>2024-11-14T08:29:06.940</time></trkpt><trkpt lat="56.8222912" lon="53.1339979"><time>2024-11-14T08:29:10.940</time></trkpt><trkpt lat="56.8222586" lon="53.1339356"><time>2024-11-14T08:29:29.943</time></trkpt><trkpt lat="56.8222526" lon="53.1338377"><time>2024-11-14T08:29:33.010</time></trkpt><trkpt lat="56.8222168" lon="53.1337839"><time>2024-11-14T08:29:34.260</time></trkpt><trkpt lat="56.8222483" lon="53.1337003"><time>2024-11-14T08:29:36.937</time></trkpt><trkpt lat="56.8222811" lon="53.1335873"><time>2024-11-14T08:29:38.943</time></trkpt><trkpt lat="56.8223259" lon="53.1335016"><time>2024-11-14T08:29:40.947</time></trkpt><trkpt lat="56.8223756" lon="53.1334218"><time>2024-11-14T08:29:42.943</time></trkpt><trkpt lat="56.8224326" lon="53.1333403"><time>2024-11-14T08:29:44.943</time></trkpt><trkpt lat="56.8224830" lon="53.1332444"><time>2024-11-14T08:29:46.940</time></trkpt><trkpt lat="56.8225384" lon="53.1331387"><time>2024-11-14T08:29:49.013</time></trkpt><trkpt lat="56.8225848" lon="53.1330738"><time>2024-11-14T08:29:50.087</time></trkpt><trkpt lat="56.8226401" lon="53.1330212"><time>2024-11-14T08:29:50.937</time></trkpt><trkpt lat="56.8226922" lon="53.1330274"><time>2024-11-14T08:29:51.940</time></trkpt><trkpt lat="56.8227413" lon="53.1330011"><time>2024-11-14T08:29:52.940</time></trkpt><trkpt lat="56.8227997" lon="53.1329668"><time>2024-11-14T08:29:54.953</time></trkpt><trkpt lat="56.8228493" lon="53.1329138"><time>2024-11-14T08:29:57.023</time></trkpt><trkpt lat="56.8229028" lon="53.1328484"><time>2024-11-14T08:29:59.037</time></trkpt><trkpt lat="56.8229720" lon="53.1327831"><time>2024-11-14T08:30:00.950</time></trkpt><trkpt lat="56.8230171" lon="53.1327695"><time>2024-11-14T08:30:01.947</time></trkpt><trkpt lat="56.8230658" lon="53.1327741"><time>2024-11-14T08:30:02.943</time></trkpt><trkpt lat="56.8231493" lon="53.1328131"><time>2024-11-14T08:30:04.943</time></trkpt><trkpt lat="56.8232247" lon="53.1328319"><time>2024-11-14T08:30:07.017</time></trkpt><trkpt lat="56.8232944" lon="53.1328149"><time>2024-11-14T08:30:09.017</time></trkpt><trkpt lat="56.8233558" lon="53.1328079"><time>2024-11-14T08:30:10.940</time></trkpt><trkpt lat="56.8234059" lon="53.1328150"><time>2024-11-14T08:30:13.020</time></trkpt><trkpt lat="56.8234665" lon="53.1328079"><time>2024-11-14T08:30:15.947</time></trkpt><trkpt lat="56.8235208" lon="53.1328297"><time>2024-11-14T08:30:19.943</time></trkpt><trkpt lat="56.8235741" lon="53.1328152"><time>2024-11-14T08:30:27</time></trkpt><trkpt lat="56.8236053" lon="53.1327558"><time>2024-11-14T08:30:29.943</time></trkpt><trkpt lat="56.8236516" lon="53.1327475"><time>2024-11-14T08:30:32.997</time></trkpt><trkpt lat="56.8236972" lon="53.1327383"><time>2024-11-14T08:30:34.943</time></trkpt><trkpt lat="56.8237469" lon="53.1327367"><time>2024-11-14T08:30:37.020</time></trkpt><trkpt lat="56.8237991" lon="53.1327295"><time>2024-11-14T08:30:39.027</time></trkpt><trkpt lat="56.8238588" lon="53.1327208"><time>2024-11-14T08:30:40.940</time></trkpt><trkpt lat="56.8239312" lon="53.1326961"><time>2024-11-14T08:30:43.020</time></trkpt><trkpt lat="56.8239982" lon="53.1326561"><time>2024-11-14T08:30:44.937</time></trkpt><trkpt lat="56.8240646" lon="53.1325933"><time>2024-11-14T08:30:46.940</time></trkpt><trkpt lat="56.8241155" lon="53.1325236"><time>2024-11-14T08:30:48.937</time></trkpt><trkpt lat="56.8241596" lon="53.1324906"><time>2024-11-14T08:30:50.950</time></trkpt><trkpt lat="56.8242281" lon="53.1324592"><time>2024-11-14T08:30:52.947</time></trkpt><trkpt lat="56.8242925" lon="53.1324128"><time>2024-11-14T08:30:54.943</time></trkpt><trkpt lat="56.8243480" lon="53.1323501"><time>2024-11-14T08:30:56.953</time></trkpt><trkpt lat="56.8243964" lon="53.1323115"><time>2024-11-14T08:30:58.173</time></trkpt><trkpt lat="56.8244370" lon="53.1322123"><time>2024-11-14T08:30:59.943</time></trkpt><trkpt lat="56.8244714" lon="53.1321449"><time>2024-11-14T08:31:00.973</time></trkpt><trkpt lat="56.8245295" lon="53.1321024"><time>2024-11-14T08:31:02.950</time></trkpt><trkpt lat="56.8245917" lon="53.1320788"><time>2024-11-14T08:31:04.943</time></trkpt><trkpt lat="56.8246601" lon="53.1320392"><time>2024-11-14T08:31:06.940</time></trkpt><trkpt lat="56.8247259" lon="53.1319909"><time>2024-11-14T08:31:09.020</time></trkpt><trkpt lat="56.8247806" lon="53.1319418"><time>2024-11-14T08:31:10.957</time></trkpt><trkpt lat="56.8247983" lon="53.1319463"><time>2024-11-14T08:31:12.037</time></trkpt><trkpt lat="56.8248784" lon="53.1319548"><time>2024-11-14T08:31:16.937</time></trkpt><trkpt lat="56.8249373" lon="53.1319785"><time>2024-11-14T08:31:19.943</time></trkpt><trkpt lat="56.8249988" lon="53.1320107"><time>2024-11-14T08:31:22.940</time></trkpt><trkpt lat="56.8250532" lon="53.1320271"><time>2024-11-14T08:31:25.007</time></trkpt><trkpt lat="56.8250532" lon="53.1320271"><time>2024-11-14T08:31:25.037</time></trkpt><trkpt lat="56.8251068" lon="53.1319620"><time>2024-11-14T08:31:33.113</time></trkpt><trkpt lat="56.8251085" lon="53.1319507"><time>2024-11-14T08:31:34.337</time></trkpt><trkpt lat="56.8251699" lon="53.1319477"><time>2024-11-14T08:31:51.950</time></trkpt><trkpt lat="56.8252160" lon="53.1319424"><time>2024-11-14T08:31:53.967</time></trkpt><trkpt lat="56.8252759" lon="53.1319781"><time>2024-11-14T08:31:56.020</time></trkpt><trkpt lat="56.8253329" lon="53.1320161"><time>2024-11-14T08:31:58.010</time></trkpt><trkpt lat="56.8253749" lon="53.1321132"><time>2024-11-14T08:31:59.950</time></trkpt><trkpt lat="56.8254013" lon="53.1322377"><time>2024-11-14T08:32:02.013</time></trkpt><trkpt lat="56.8254174" lon="53.1323711"><time>2024-11-14T08:32:03.947</time></trkpt><trkpt lat="56.8254315" lon="53.1325205"><time>2024-11-14T08:32:05.940</time></trkpt><trkpt lat="56.8254595" lon="53.1326673"><time>2024-11-14T08:32:07.943</time></trkpt><trkpt lat="56.8254856" lon="53.1328111"><time>2024-11-14T08:32:09.943</time></trkpt><trkpt lat="56.8255056" lon="53.1329495"><time>2024-11-14T08:32:11.983</time></trkpt><trkpt lat="56.8255178" lon="53.1330898"><time>2024-11-14T08:32:13.977</time></trkpt><trkpt lat="56.8255112" lon="53.1332392"><time>2024-11-14T08:32:15.947</time></trkpt><trkpt lat="56.8255052" lon="53.1333907"><time>2024-11-14T08:32:17.947</time></trkpt><trkpt lat="56.8255154" lon="53.1335428"><time>2024-11-14T08:32:19.950</time></trkpt><trkpt lat="56.8255273" lon="53.1336931"><time>2024-11-14T08:32:22.023</time></trkpt><trkpt lat="56.8255274" lon="53.1338070"><time>2024-11-14T08:32:24.050</time></trkpt><trkpt lat="56.8255379" lon="53.1339163"><time>2024-11-14T08:32:25.943</time></trkpt><trkpt lat="56.8255460" lon="53.1340303"><time>2024-11-14T08:32:28.003</time></trkpt><trkpt lat="56.8255547" lon="53.1341365"><time>2024-11-14T08:32:29.937</time></trkpt><trkpt lat="56.8255686" lon="53.1342520"><time>2024-11-14T08:32:32.023</time></trkpt><trkpt lat="56.8256048" lon="53.1343558"><time>2024-11-14T08:32:33.937</time></trkpt><trkpt lat="56.8256742" lon="53.1344544"><time>2024-11-14T08:32:35.953</time></trkpt><trkpt lat="56.8257559" lon="53.1344863"><time>2024-11-14T08:32:38.020</time></trkpt><trkpt lat="56.8258326" lon="53.1344823"><time>2024-11-14T08:32:39.950</time></trkpt><trkpt lat="56.8259063" lon="53.1344757"><time>2024-11-14T08:32:41.937</time></trkpt><trkpt lat="56.8259816" lon="53.1344573"><time>2024-11-14T08:32:43.943</time></trkpt><trkpt lat="56.8260488" lon="53.1344509"><time>2024-11-14T08:32:45.947</time></trkpt><trkpt lat="56.8261048" lon="53.1344615"><time>2024-11-14T08:32:48.013</time></trkpt><trkpt lat="56.8261634" lon="53.1344758"><time>2024-11-14T08:32:49.940</time></trkpt><trkpt lat="56.8262445" lon="53.1344782"><time>2024-11-14T08:32:52.003</time></trkpt><trkpt lat="56.8263236" lon="53.1344838"><time>2024-11-14T08:32:54.027</time></trkpt><trkpt lat="56.8263945" lon="53.1344824"><time>2024-11-14T08:32:56.030</time></trkpt><trkpt lat="56.8263807" lon="53.1344410"><time>2024-11-14T08:32:57.310</time></trkpt><trkpt lat="56.8264410" lon="53.1344297"><time>2024-11-14T08:32:59.013</time></trkpt><trkpt lat="56.8265063" lon="53.1344080"><time>2024-11-14T08:33:00.977</time></trkpt><trkpt lat="56.8265540" lon="53.1343856"><time>2024-11-14T08:33:02.947</time></trkpt><trkpt lat="56.8266090" lon="53.1343621"><time>2024-11-14T08:33:04.947</time></trkpt><trkpt lat="56.8266742" lon="53.1343463"><time>2024-11-14T08:33:06.990</time></trkpt><trkpt lat="56.8267476" lon="53.1343381"><time>2024-11-14T08:33:08.970</time></trkpt><trkpt lat="56.8268247" lon="53.1343514"><time>2024-11-14T08:33:10.943</time></trkpt><trkpt lat="56.8269023" lon="53.1343576"><time>2024-11-14T08:33:12.930</time></trkpt><trkpt lat="56.8269779" lon="53.1343516"><time>2024-11-14T08:33:14.970</time></trkpt><trkpt lat="56.8270678" lon="53.1343432"><time>2024-11-14T08:33:16.947</time></trkpt><trkpt lat="56.8271139" lon="53.1343336"><time>2024-11-14T08:33:17.943</time></trkpt><trkpt lat="56.8272035" lon="53.1342997"><time>2024-11-14T08:33:19.947</time></trkpt><trkpt lat="56.8272470" lon="53.1342754"><time>2024-11-14T08:33:20.937</time></trkpt><trkpt lat="56.8272975" lon="53.1342507"><time>2024-11-14T08:33:21.940</time></trkpt><trkpt lat="56.8273532" lon="53.1342302"><time>2024-11-14T08:33:22.950</time></trkpt><trkpt lat="56.8274107" lon="53.1342129"><time>2024-11-14T08:33:23.947</time></trkpt><trkpt lat="56.8274646" lon="53.1341982"><time>2024-11-14T08:33:24.950</time></trkpt><trkpt lat="56.8275146" lon="53.1341812"><time>2024-11-14T08:33:25.947</time></trkpt><trkpt lat="56.8275630" lon="53.1341681"><time>2024-11-14T08:33:26.947</time></trkpt><trkpt lat="56.8276131" lon="53.1341544"><time>2024-11-14T08:33:27.947</time></trkpt><trkpt lat="56.8276610" lon="53.1341294"><time>2024-11-14T08:33:28.943</time></trkpt><trkpt lat="56.8277067" lon="53.1341074"><time>2024-11-14T08:33:29.943</time></trkpt><trkpt lat="56.8277827" lon="53.1341159"><time>2024-11-14T08:33:31.950</time></trkpt><trkpt lat="56.8278231" lon="53.1342721"><time>2024-11-14T08:33:34.017</time></trkpt><trkpt lat="56.8278263" lon="53.1343708"><time>2024-11-14T08:33:34.943</time></trkpt><trkpt lat="56.8278263" lon="53.1344609"><time>2024-11-14T08:33:35.937</time></trkpt><trkpt lat="56.8278324" lon="53.1346170"><time>2024-11-14T08:33:38.023</time></trkpt><trkpt lat="56.8278443" lon="53.1347609"><time>2024-11-14T08:33:40.010</time></trkpt><trkpt lat="56.8277340" lon="53.1347012"><time>2024-11-14T08:33:41.093</time></trkpt><trkpt lat="56.8277472" lon="53.1347805"><time>2024-11-14T08:33:41.933</time></trkpt><trkpt lat="56.8277519" lon="53.1349304"><time>2024-11-14T08:33:43.937</time></trkpt><trkpt lat="56.8277651" lon="53.1350108"><time>2024-11-14T08:33:44.947</time></trkpt><trkpt lat="56.8277806" lon="53.1351131"><time>2024-11-14T08:33:46.940</time></trkpt><trkpt lat="56.8277983" lon="53.1351934"><time>2024-11-14T08:33:48.940</time></trkpt><trkpt lat="56.8278162" lon="53.1353041"><time>2024-11-14T08:33:50.947</time></trkpt><trkpt lat="56.8278353" lon="53.1354200"><time>2024-11-14T08:33:52.940</time></trkpt><trkpt lat="56.8278683" lon="53.1355306"><time>2024-11-14T08:33:54.950</time></trkpt><trkpt lat="56.8278728" lon="53.1356197"><time>2024-11-14T08:33:56.027</time></trkpt><trkpt lat="56.8278723" lon="53.1357128"><time>2024-11-14T08:33:56.980</time></trkpt><trkpt lat="56.8278850" lon="53.1358685"><time>2024-11-14T08:33:58.943</time></trkpt><trkpt lat="56.8278761" lon="53.1359997"><time>2024-11-14T08:34:01.013</time></trkpt><trkpt lat="56.8278761" lon="53.1359997"><time>2024-11-14T08:34:01.053</time></trkpt><trkpt lat="56.8278683" lon="53.1361045"><time>2024-11-14T08:34:02.960</time></trkpt><trkpt lat="56.8278446" lon="53.1362058"><time>2024-11-14T08:34:04.027</time></trkpt><trkpt lat="56.8278532" lon="53.1363016"><time>2024-11-14T08:34:07.940</time></trkpt><trkpt lat="56.8278105" lon="53.1362388"><time>2024-11-14T08:34:13.937</time></trkpt><trkpt lat="56.8277810" lon="53.1361537"><time>2024-11-14T08:34:17.933</time></trkpt><trkpt lat="56.8277984" lon="53.1362538"><time>2024-11-14T08:34:37.973</time></trkpt><trkpt lat="56.8278378" lon="53.1363249"><time>2024-11-14T08:34:41.967</time></trkpt><trkpt lat="56.8279040" lon="53.1363832"><time>2024-11-14T08:34:45.937</time></trkpt><trkpt lat="56.8279601" lon="53.1364266"><time>2024-11-14T08:34:47.947</time></trkpt><trkpt lat="56.8280207" lon="53.1364938"><time>2024-11-14T08:34:49.940</time></trkpt><trkpt lat="56.8280798" lon="53.1365704"><time>2024-11-14T08:34:51.937</time></trkpt><trkpt lat="56.8281447" lon="53.1366676"><time>2024-11-14T08:34:53.977</time></trkpt><trkpt lat="56.8281797" lon="53.1367238"><time>2024-11-14T08:34:54.940</time></trkpt><trkpt lat="56.8282581" lon="53.1367806"><time>2024-11-14T08:34:56.977</time></trkpt><trkpt lat="56.8283404" lon="53.1367796"><time>2024-11-14T08:34:58.977</time></trkpt><trkpt lat="56.8284283" lon="53.1367791"><time>2024-11-14T08:35:00.943</time></trkpt><trkpt lat="56.8285138" lon="53.1367742"><time>2024-11-14T08:35:02.937</time></trkpt><trkpt lat="56.8285846" lon="53.1367572"><time>2024-11-14T08:35:04.943</time></trkpt><trkpt lat="56.8286591" lon="53.1367388"><time>2024-11-14T08:35:06.943</time></trkpt><trkpt lat="56.8287421" lon="53.1367159"><time>2024-11-14T08:35:08.937</time></trkpt><trkpt lat="56.8288208" lon="53.1367314"><time>2024-11-14T08:35:10.937</time></trkpt><trkpt lat="56.8288777" lon="53.1367808"><time>2024-11-14T08:35:12.950</time></trkpt><trkpt lat="56.8289352" lon="53.1368358"><time>2024-11-14T08:35:14.947</time></trkpt><trkpt lat="56.8290064" lon="53.1368565"><time>2024-11-14T08:35:16.950</time></trkpt><trkpt lat="56.8290847" lon="53.1368479"><time>2024-11-14T08:35:18.947</time></trkpt><trkpt lat="56.8291647" lon="53.1368447"><time>2024-11-14T08:35:21.027</time></trkpt><trkpt lat="56.8292140" lon="53.1368656"><time>2024-11-14T08:35:22.017</time></trkpt><trkpt lat="56.8292627" lon="53.1368907"><time>2024-11-14T08:35:23.017</time></trkpt><trkpt lat="56.8293087" lon="53.1369014"><time>2024-11-14T08:35:24.013</time></trkpt><trkpt lat="56.8293540" lon="53.1368990"><time>2024-11-14T08:35:24.943</time></trkpt><trkpt lat="56.8294246" lon="53.1368893"><time>2024-11-14T08:35:27.010</time></trkpt><trkpt lat="56.8294895" lon="53.1368647"><time>2024-11-14T08:35:29.003</time></trkpt><trkpt lat="56.8295719" lon="53.1368722"><time>2024-11-14T08:35:31.027</time></trkpt><trkpt lat="56.8296291" lon="53.1369453"><time>2024-11-14T08:35:33.030</time></trkpt><trkpt lat="56.8296558" lon="53.1370344"><time>2024-11-14T08:35:35.010</time></trkpt><trkpt lat="56.8296464" lon="53.1369778"><time>2024-11-14T08:35:36.167</time></trkpt><trkpt lat="56.8297019" lon="53.1369606"><time>2024-11-14T08:35:39.947</time></trkpt><trkpt lat="56.8297468" lon="53.1369451"><time>2024-11-14T08:35:41.943</time></trkpt><trkpt lat="56.8298138" lon="53.1369220"><time>2024-11-14T08:35:44.947</time></trkpt><trkpt lat="56.8298824" lon="53.1369151"><time>2024-11-14T08:35:47.023</time></trkpt><trkpt lat="56.8299688" lon="53.1369493"><time>2024-11-14T08:35:49.010</time></trkpt><trkpt lat="56.8300368" lon="53.1370390"><time>2024-11-14T08:35:50.940</time></trkpt><trkpt lat="56.8300840" lon="53.1371409"><time>2024-11-14T08:35:53.027</time></trkpt><trkpt lat="56.8301189" lon="53.1372395"><time>2024-11-14T08:35:54.943</time></trkpt><trkpt lat="56.8301349" lon="53.1373483"><time>2024-11-14T08:35:57.017</time></trkpt><trkpt lat="56.8301522" lon="53.1374477"><time>2024-11-14T08:35:58.940</time></trkpt><trkpt lat="56.8301889" lon="53.1375572"><time>2024-11-14T08:36:00.943</time></trkpt><trkpt lat="56.8302268" lon="53.1376693"><time>2024-11-14T08:36:02.983</time></trkpt><trkpt lat="56.8302762" lon="53.1377806"><time>2024-11-14T08:36:04.947</time></trkpt><trkpt lat="56.8303447" lon="53.1378765"><time>2024-11-14T08:36:06.947</time></trkpt><trkpt lat="56.8304196" lon="53.1379401"><time>2024-11-14T08:36:08.963</time></trkpt><trkpt lat="56.8303727" lon="53.1378991"><time>2024-11-14T08:36:10.067</time></trkpt><trkpt lat="56.8303907" lon="53.1379408"><time>2024-11-14T08:36:11.167</time></trkpt><trkpt lat="56.8304167" lon="53.1379800"><time>2024-11-14T08:36:12.260</time></trkpt><trkpt lat="56.8304370" lon="53.1380626"><time>2024-11-14T08:36:13.943</time></trkpt><trkpt lat="56.8304967" lon="53.1380664"><time>2024-11-14T08:36:16.947</time></trkpt><trkpt lat="56.8305469" lon="53.1380727"><time>2024-11-14T08:36:18.943</time></trkpt><trkpt lat="56.8306010" lon="53.1380883"><time>2024-11-14T08:36:20.947</time></trkpt><trkpt lat="56.8306744" lon="53.1381170"><time>2024-11-14T08:36:22.943</time></trkpt><trkpt lat="56.8307446" lon="53.1381765"><time>2024-11-14T08:36:24.940</time></trkpt><trkpt lat="56.8307978" lon="53.1382295"><time>2024-11-14T08:36:26.947</time></trkpt><trkpt lat="56.8308393" lon="53.1383175"><time>2024-11-14T08:36:30.010</time></trkpt><trkpt lat="56.8308315" lon="53.1383679"><time>2024-11-14T08:36:31.090</time></trkpt><trkpt lat="56.8308670" lon="53.1384528"><time>2024-11-14T08:36:45.943</time></trkpt><trkpt lat="56.8309162" lon="53.1385047"><time>2024-11-14T08:36:49.947</time></trkpt><trkpt lat="56.8309589" lon="53.1385680"><time>2024-11-14T08:36:54.020</time></trkpt><trkpt lat="56.8309998" lon="53.1386066"><time>2024-11-14T08:36:59.013</time></trkpt><trkpt lat="56.8310119" lon="53.1386856"><time>2024-11-14T08:37:04.073</time></trkpt><trkpt lat="56.8310119" lon="53.1386856"><time>2024-11-14T08:37:04.100</time></trkpt><trkpt lat="56.8309602" lon="53.1387346"><time>2024-11-14T08:37:11.007</time></trkpt><trkpt lat="56.8309495" lon="53.1387209"><time>2024-11-14T08:37:12.087</time></trkpt><trkpt lat="56.8309467" lon="53.1386241"><time>2024-11-14T08:37:45.943</time></trkpt><trkpt lat="56.8309217" lon="53.1385138"><time>2024-11-14T08:37:48.947</time></trkpt><trkpt lat="56.8308719" lon="53.1384161"><time>2024-11-14T08:37:50.947</time></trkpt><trkpt lat="56.8308487" lon="53.1382921"><time>2024-11-14T08:37:52.943</time></trkpt><trkpt lat="56.8308471" lon="53.1381561"><time>2024-11-14T08:37:54.947</time></trkpt><trkpt lat="56.8308517" lon="53.1380664"><time>2024-11-14T08:37:56.943</time></trkpt><trkpt lat="56.8308498" lon="53.1379218"><time>2024-11-14T08:37:59.017</time></trkpt><trkpt lat="56.8308438" lon="53.1377800"><time>2024-11-14T08:38:00.947</time></trkpt><trkpt lat="56.8308362" lon="53.1376813"><time>2024-11-14T08:38:03.007</time></trkpt><trkpt lat="56.8308382" lon="53.1375847"><time>2024-11-14T08:38:04.947</time></trkpt><trkpt lat="56.8308634" lon="53.1374836"><time>2024-11-14T08:38:06.947</time></trkpt><trkpt lat="56.8309211" lon="53.1374113"><time>2024-11-14T08:38:09.017</time></trkpt><trkpt lat="56.8309402" lon="53.1373000"><time>2024-11-14T08:38:10.940</time></trkpt><trkpt lat="56.8309183" lon="53.1371490"><time>2024-11-14T08:38:13.017</time></trkpt><trkpt lat="56.8309025" lon="53.1370081"><time>2024-11-14T08:38:14.943</time></trkpt><trkpt lat="56.8309055" lon="53.1369162"><time>2024-11-14T08:38:15.940</time></trkpt><trkpt lat="56.8309040" lon="53.1368231"><time>2024-11-14T08:38:17.017</time></trkpt><trkpt lat="56.8309038" lon="53.1367222"><time>2024-11-14T08:38:18.020</time></trkpt><trkpt lat="56.8308975" lon="53.1366293"><time>2024-11-14T08:38:18.947</time></trkpt><trkpt lat="56.8308846" lon="53.1365488"><time>2024-11-14T08:38:19.943</time></trkpt><trkpt lat="56.8308612" lon="53.1364783"><time>2024-11-14T08:38:20.950</time></trkpt><trkpt lat="56.8308166" lon="53.1363915"><time>2024-11-14T08:38:22.940</time></trkpt><trkpt lat="56.8307937" lon="53.1363098"><time>2024-11-14T08:38:24.977</time></trkpt><trkpt lat="56.8307724" lon="53.1362071"><time>2024-11-14T08:38:26.937</time></trkpt><trkpt lat="56.8307348" lon="53.1360846"><time>2024-11-14T08:38:29.010</time></trkpt><trkpt lat="56.8306840" lon="53.1359778"><time>2024-11-14T08:38:30.940</time></trkpt><trkpt lat="56.8306571" lon="53.1359108"><time>2024-11-14T08:38:31.943</time></trkpt><trkpt lat="56.8306305" lon="53.1358434"><time>2024-11-14T08:38:32.947</time></trkpt><trkpt lat="56.8305929" lon="53.1357126"><time>2024-11-14T08:38:34.947</time></trkpt><trkpt lat="56.8305718" lon="53.1355874"><time>2024-11-14T08:38:36.943</time></trkpt><trkpt lat="56.8305596" lon="53.1354692"><time>2024-11-14T08:38:38.940</time></trkpt><trkpt lat="56.8305549" lon="53.1353758"><time>2024-11-14T08:38:40.950</time></trkpt><trkpt lat="56.8305343" lon="53.1352809"><time>2024-11-14T08:38:42.943</time></trkpt><trkpt lat="56.8304979" lon="53.1351905"><time>2024-11-14T08:38:44.943</time></trkpt><trkpt lat="56.8304507" lon="53.1350980"><time>2024-11-14T08:38:46.940</time></trkpt><trkpt lat="56.8304232" lon="53.1349696"><time>2024-11-14T08:38:48.937</time></trkpt><trkpt lat="56.8304136" lon="53.1348315"><time>2024-11-14T08:38:50.943</time></trkpt><trkpt lat="56.8304132" lon="53.1346923"><time>2024-11-14T08:38:52.943</time></trkpt><trkpt lat="56.8303963" lon="53.1345705"><time>2024-11-14T08:38:54.947</time></trkpt><trkpt lat="56.8303622" lon="53.1344763"><time>2024-11-14T08:38:56.943</time></trkpt><trkpt lat="56.8303641" lon="53.1343716"><time>2024-11-14T08:38:58.943</time></trkpt><trkpt lat="56.8304169" lon="53.1342932"><time>2024-11-14T08:39:00.947</time></trkpt><trkpt lat="56.8304621" lon="53.1342566"><time>2024-11-14T08:39:01.943</time></trkpt><trkpt lat="56.8305087" lon="53.1342254"><time>2024-11-14T08:39:02.943</time></trkpt><trkpt lat="56.8305789" lon="53.1341599"><time>2024-11-14T08:39:04.943</time></trkpt><trkpt lat="56.8306384" lon="53.1341005"><time>2024-11-14T08:39:06.947</time></trkpt><trkpt lat="56.8306707" lon="53.1340287"><time>2024-11-14T08:39:08.997</time></trkpt><trkpt lat="56.8306515" lon="53.1340961"><time>2024-11-14T08:39:10.147</time></trkpt><trkpt lat="56.8306467" lon="53.1340414"><time>2024-11-14T08:39:11.267</time></trkpt><trkpt lat="56.8306185" lon="53.1339619"><time>2024-11-14T08:39:11.993</time></trkpt><trkpt lat="56.8306152" lon="53.1339227"><time>2024-11-14T08:39:13.057</time></trkpt><trkpt lat="56.8305968" lon="53.1338280"><time>2024-11-14T08:39:13.937</time></trkpt><trkpt lat="56.8305725" lon="53.1337510"><time>2024-11-14T08:39:14.940</time></trkpt><trkpt lat="56.8305583" lon="53.1336511"><time>2024-11-14T08:39:16.947</time></trkpt><trkpt lat="56.8305504" lon="53.1335421"><time>2024-11-14T08:39:18.947</time></trkpt><trkpt lat="56.8305456" lon="53.1334103"><time>2024-11-14T08:39:20.947</time></trkpt><trkpt lat="56.8305438" lon="53.1332740"><time>2024-11-14T08:39:22.947</time></trkpt><trkpt lat="56.8305310" lon="53.1331450"><time>2024-11-14T08:39:24.950</time></trkpt><trkpt lat="56.8305160" lon="53.1330114"><time>2024-11-14T08:39:27.017</time></trkpt><trkpt lat="56.8305042" lon="53.1328636"><time>2024-11-14T08:39:29.030</time></trkpt><trkpt lat="56.8304886" lon="53.1326983"><time>2024-11-14T08:39:30.940</time></trkpt><trkpt lat="56.8304749" lon="53.1325419"><time>2024-11-14T08:39:33.017</time></trkpt><trkpt lat="56.8304670" lon="53.1324605"><time>2024-11-14T08:39:34.017</time></trkpt><trkpt lat="56.8304618" lon="53.1323034"><time>2024-11-14T08:39:36.003</time></trkpt><trkpt lat="56.8304699" lon="53.1322571"><time>2024-11-14T08:39:37.077</time></trkpt><trkpt lat="56.8304679" lon="53.1321717"><time>2024-11-14T08:39:37.930</time></trkpt><trkpt lat="56.8304384" lon="53.1320341"><time>2024-11-14T08:39:39.947</time></trkpt><trkpt lat="56.8304347" lon="53.1319275"><time>2024-11-14T08:39:41.940</time></trkpt><trkpt lat="56.8304396" lon="53.1318320"><time>2024-11-14T08:39:43.943</time></trkpt><trkpt lat="56.8304427" lon="53.1317039"><time>2024-11-14T08:39:45.947</time></trkpt><trkpt lat="56.8304448" lon="53.1315491"><time>2024-11-14T08:39:48.037</time></trkpt><trkpt lat="56.8304465" lon="53.1314058"><time>2024-11-14T08:39:49.933</time></trkpt><trkpt lat="56.8304635" lon="53.1312826"><time>2024-11-14T08:39:52.080</time></trkpt><trkpt lat="56.8304814" lon="53.1312730"><time>2024-11-14T08:39:53.213</time></trkpt><trkpt lat="56.8305085" lon="53.1311746"><time>2024-11-14T08:39:54.943</time></trkpt><trkpt lat="56.8305498" lon="53.1311192"><time>2024-11-14T08:39:55.950</time></trkpt><trkpt lat="56.8306027" lon="53.1310411"><time>2024-11-14T08:39:57.947</time></trkpt><trkpt lat="56.8306408" lon="53.1309756"><time>2024-11-14T08:40:00.010</time></trkpt><trkpt lat="56.8306408" lon="53.1309756"><time>2024-11-14T08:40:00.047</time></trkpt><trkpt lat="56.8306827" lon="53.1309087"><time>2024-11-14T08:40:01.963</time></trkpt><trkpt lat="56.8306956" lon="53.1308032"><time>2024-11-14T08:40:03.047</time></trkpt><trkpt lat="56.8306580" lon="53.1307554"><time>2024-11-14T08:40:14.017</time></trkpt><trkpt lat="56.8306191" lon="53.1306978"><time>2024-11-14T08:40:17.013</time></trkpt><trkpt lat="56.8306622" lon="53.1307211"><time>2024-11-14T08:40:24.017</time></trkpt><trkpt lat="56.8306087" lon="53.1306737"><time>2024-11-14T08:40:30.950</time></trkpt><trkpt lat="56.8305836" lon="53.1305745"><time>2024-11-14T08:40:34.023</time></trkpt><trkpt lat="56.8306040" lon="53.1304644"><time>2024-11-14T08:40:35.943</time></trkpt><trkpt lat="56.8306421" lon="53.1303835"><time>2024-11-14T08:40:38.027</time></trkpt><trkpt lat="56.8306829" lon="53.1303105"><time>2024-11-14T08:40:39.953</time></trkpt><trkpt lat="56.8307226" lon="53.1302316"><time>2024-11-14T08:40:41.947</time></trkpt><trkpt lat="56.8307791" lon="53.1301801"><time>2024-11-14T08:40:43.940</time></trkpt><trkpt lat="56.8308522" lon="53.1301572"><time>2024-11-14T08:40:45.937</time></trkpt><trkpt lat="56.8309226" lon="53.1301017"><time>2024-11-14T08:40:48.027</time></trkpt><trkpt lat="56.8309664" lon="53.1300046"><time>2024-11-14T08:40:49.947</time></trkpt><trkpt lat="56.8310019" lon="53.1298852"><time>2024-11-14T08:40:52.007</time></trkpt><trkpt lat="56.8310477" lon="53.1297700"><time>2024-11-14T08:40:53.943</time></trkpt><trkpt lat="56.8311085" lon="53.1296698"><time>2024-11-14T08:40:55.947</time></trkpt><trkpt lat="56.8311488" lon="53.1296262"><time>2024-11-14T08:40:57.027</time></trkpt><trkpt lat="56.8312358" lon="53.1295710"><time>2024-11-14T08:40:59.013</time></trkpt><trkpt lat="56.8312852" lon="53.1295478"><time>2024-11-14T08:40:59.950</time></trkpt><trkpt lat="56.8313356" lon="53.1295350"><time>2024-11-14T08:41:00.947</time></trkpt><trkpt lat="56.8313850" lon="53.1295273"><time>2024-11-14T08:41:01.940</time></trkpt><trkpt lat="56.8314332" lon="53.1295159"><time>2024-11-14T08:41:02.940</time></trkpt><trkpt lat="56.8314778" lon="53.1294995"><time>2024-11-14T08:41:03.943</time></trkpt><trkpt lat="56.8315660" lon="53.1294764"><time>2024-11-14T08:41:05.940</time></trkpt><trkpt lat="56.8316444" lon="53.1294151"><time>2024-11-14T08:41:07.947</time></trkpt><trkpt lat="56.8316771" lon="53.1292884"><time>2024-11-14T08:41:09.947</time></trkpt><trkpt lat="56.8316687" lon="53.1292076"><time>2024-11-14T08:41:10.947</time></trkpt><trkpt lat="56.8316560" lon="53.1291240"><time>2024-11-14T08:41:11.947</time></trkpt><trkpt lat="56.8316472" lon="53.1290414"><time>2024-11-14T08:41:12.943</time></trkpt><trkpt lat="56.8316511" lon="53.1288977"><time>2024-11-14T08:41:14.947</time></trkpt><trkpt lat="56.8316724" lon="53.1287608"><time>2024-11-14T08:41:16.943</time></trkpt><trkpt lat="56.8316936" lon="53.1286252"><time>2024-11-14T08:41:18.947</time></trkpt><trkpt lat="56.8317262" lon="53.1284905"><time>2024-11-14T08:41:20.947</time></trkpt><trkpt lat="56.8317795" lon="53.1283729"><time>2024-11-14T08:41:22.943</time></trkpt><trkpt lat="56.8318507" lon="53.1283087"><time>2024-11-14T08:41:24.943</time></trkpt><trkpt lat="56.8318981" lon="53.1283177"><time>2024-11-14T08:41:25.947</time></trkpt><trkpt lat="56.8319442" lon="53.1283251"><time>2024-11-14T08:41:27.020</time></trkpt><trkpt lat="56.8319916" lon="53.1283282"><time>2024-11-14T08:41:28.017</time></trkpt><trkpt lat="56.8320428" lon="53.1283315"><time>2024-11-14T08:41:29.017</time></trkpt><trkpt lat="56.8320914" lon="53.1283316"><time>2024-11-14T08:41:29.933</time></trkpt><trkpt lat="56.8321448" lon="53.1283310"><time>2024-11-14T08:41:30.947</time></trkpt><trkpt lat="56.8321978" lon="53.1283323"><time>2024-11-14T08:41:31.950</time></trkpt><trkpt lat="56.8322448" lon="53.1283203"><time>2024-11-14T08:41:33.033</time></trkpt><trkpt lat="56.8322925" lon="53.1283033"><time>2024-11-14T08:41:34.020</time></trkpt><trkpt lat="56.8323764" lon="53.1282454"><time>2024-11-14T08:41:35.937</time></trkpt><trkpt lat="56.8324445" lon="53.1281811"><time>2024-11-14T08:41:37.933</time></trkpt><trkpt lat="56.8325064" lon="53.1281300"><time>2024-11-14T08:41:39.977</time></trkpt><trkpt lat="56.8325747" lon="53.1280875"><time>2024-11-14T08:41:41.980</time></trkpt><trkpt lat="56.8326559" lon="53.1280540"><time>2024-11-14T08:41:44.003</time></trkpt><trkpt lat="56.8327213" lon="53.1279664"><time>2024-11-14T08:41:45.977</time></trkpt><trkpt lat="56.8327820" lon="53.1279002"><time>2024-11-14T08:41:48.013</time></trkpt><trkpt lat="56.8328515" lon="53.1278917"><time>2024-11-14T08:41:49.973</time></trkpt><trkpt lat="56.8329146" lon="53.1278709"><time>2024-11-14T08:41:52.023</time></trkpt><trkpt lat="56.8329748" lon="53.1278347"><time>2024-11-14T08:41:53.947</time></trkpt><trkpt lat="56.8330407" lon="53.1277900"><time>2024-11-14T08:41:55.970</time></trkpt><trkpt lat="56.8330984" lon="53.1276926"><time>2024-11-14T08:41:58.017</time></trkpt><trkpt lat="56.8331249" lon="53.1276248"><time>2024-11-14T08:41:59.023</time></trkpt><trkpt lat="56.8331549" lon="53.1275609"><time>2024-11-14T08:41:59.980</time></trkpt><trkpt lat="56.8331911" lon="53.1275084"><time>2024-11-14T08:42:00.983</time></trkpt><trkpt lat="56.8332658" lon="53.1274228"><time>2024-11-14T08:42:03.013</time></trkpt><trkpt lat="56.8333487" lon="53.1273569"><time>2024-11-14T08:42:05.040</time></trkpt><trkpt lat="56.8334072" lon="53.1273447"><time>2024-11-14T08:42:06.907</time></trkpt><trkpt lat="56.8334872" lon="53.1273499"><time>2024-11-14T08:42:08.943</time></trkpt><trkpt lat="56.8335485" lon="53.1273586"><time>2024-11-14T08:42:11.943</time></trkpt><trkpt lat="56.8335019" lon="53.1273576"><time>2024-11-14T08:42:23.970</time></trkpt><trkpt lat="56.8335206" lon="53.1272791"><time>2024-11-14T08:43:01.973</time></trkpt><trkpt lat="56.8335651" lon="53.1272076"><time>2024-11-14T08:43:04.970</time></trkpt><trkpt lat="56.8336003" lon="53.1271289"><time>2024-11-14T08:43:06.937</time></trkpt><trkpt lat="56.8336416" lon="53.1270457"><time>2024-11-14T08:43:08.937</time></trkpt><trkpt lat="56.8336942" lon="53.1269637"><time>2024-11-14T08:43:10.937</time></trkpt><trkpt lat="56.8337636" lon="53.1269088"><time>2024-11-14T08:43:12.937</time></trkpt><trkpt lat="56.8338389" lon="53.1269239"><time>2024-11-14T08:43:14.940</time></trkpt><trkpt lat="56.8338884" lon="53.1269333"><time>2024-11-14T08:43:15.947</time></trkpt><trkpt lat="56.8339408" lon="53.1269415"><time>2024-11-14T08:43:16.947</time></trkpt><trkpt lat="56.8339966" lon="53.1269406"><time>2024-11-14T08:43:17.947</time></trkpt><trkpt lat="56.8340513" lon="53.1269315"><time>2024-11-14T08:43:18.943</time></trkpt><trkpt lat="56.8341031" lon="53.1269262"><time>2024-11-14T08:43:19.947</time></trkpt><trkpt lat="56.8341518" lon="53.1269293"><time>2024-11-14T08:43:21.003</time></trkpt><trkpt lat="56.8341981" lon="53.1269400"><time>2024-11-14T08:43:21.947</time></trkpt><trkpt lat="56.8342326" lon="53.1268911"><time>2024-11-14T08:43:22.020</time></trkpt><trkpt lat="56.8342866" lon="53.1268800"><time>2024-11-14T08:43:22.927</time></trkpt><trkpt lat="56.8343669" lon="53.1269104"><time>2024-11-14T08:43:24.960</time></trkpt><trkpt lat="56.8344432" lon="53.1268974"><time>2024-11-14T08:43:26.963</time></trkpt><trkpt lat="56.8345001" lon="53.1268943"><time>2024-11-14T08:43:29.020</time></trkpt><trkpt lat="56.8345621" lon="53.1268847"><time>2024-11-14T08:43:30.933</time></trkpt><trkpt lat="56.8346340" lon="53.1268468"><time>2024-11-14T08:43:32.960</time></trkpt><trkpt lat="56.8347094" lon="53.1267873"><time>2024-11-14T08:43:34.023</time></trkpt><trkpt lat="56.8347549" lon="53.1267783"><time>2024-11-14T08:43:38.943</time></trkpt></trkseg></trk></gpx>